<?xml version="1.0" encoding="UTF-8" standalone="no" ?>
<gpx xmlns="http://www.topografix.com/GPX/1/1" xmlns:xsi="http://www.w3.org/2001/XMLSchema-instance" xsi:schemaLocation="http://www.topografix.com/GPX/1/1 http://www.topografix.com/GPX/1/1/gpx.xsd" version="1.1" creator="VisuGPX - https://www.visugpx.com">
  <metadata>
    <name>Aller rando bivouac Panissières</name>
  </metadata>
  <trk>
    <name><![CDATA[Aller rando bivouac Panissières-21803171]]></name>
    <extensions>
      <line xmlns="http://www.topografix.com/GPX/gpx_style/0/2">
        <color>0000FF</color>
        <width>4</width>
      </line>
    </extensions>
    <trkseg>
      <trkpt lat="45.71343" lon="4.32044">
        <ele>503</ele>
        <time>2025-07-22T22:47:37Z</time>
      </trkpt>
      <trkpt lat="45.71348" lon="4.3208">
        <ele>503</ele>
        <time>2025-07-22T22:47:58Z</time>
      </trkpt>
      <trkpt lat="45.7136" lon="4.32144">
        <ele>507</ele>
        <time>2025-07-22T22:48:35Z</time>
      </trkpt>
      <trkpt lat="45.71378" lon="4.322">
        <ele>510</ele>
        <time>2025-07-22T22:49:09Z</time>
      </trkpt>
      <trkpt lat="45.71387" lon="4.32238">
        <ele>511</ele>
        <time>2025-07-22T22:49:31Z</time>
      </trkpt>
      <trkpt lat="45.71389" lon="4.32278">
        <ele>513</ele>
        <time>2025-07-22T22:49:54Z</time>
      </trkpt>
      <trkpt lat="45.71382" lon="4.32357">
        <ele>516</ele>
        <time>2025-07-22T22:50:38Z</time>
      </trkpt>
      <trkpt lat="45.71395" lon="4.32356">
        <ele>517</ele>
        <time>2025-07-22T22:50:49Z</time>
      </trkpt>
      <trkpt lat="45.71412" lon="4.32356">
        <ele>517</ele>
        <time>2025-07-22T22:51:02Z</time>
      </trkpt>
      <trkpt lat="45.71425" lon="4.32358">
        <ele>517</ele>
        <time>2025-07-22T22:51:13Z</time>
      </trkpt>
      <trkpt lat="45.71436" lon="4.32363">
        <ele>516</ele>
        <time>2025-07-22T22:51:22Z</time>
      </trkpt>
      <trkpt lat="45.71448" lon="4.3237">
        <ele>515</ele>
        <time>2025-07-22T22:51:33Z</time>
      </trkpt>
      <trkpt lat="45.71457" lon="4.3238">
        <ele>514</ele>
        <time>2025-07-22T22:51:42Z</time>
      </trkpt>
      <trkpt lat="45.71463" lon="4.3239">
        <ele>514</ele>
        <time>2025-07-22T22:51:49Z</time>
      </trkpt>
      <trkpt lat="45.71468" lon="4.32402">
        <ele>513</ele>
        <time>2025-07-22T22:51:57Z</time>
      </trkpt>
      <trkpt lat="45.71485" lon="4.32431">
        <ele>512</ele>
        <time>2025-07-22T22:52:18Z</time>
      </trkpt>
      <trkpt lat="45.71496" lon="4.32452">
        <ele>511</ele>
        <time>2025-07-22T22:52:33Z</time>
      </trkpt>
      <trkpt lat="45.71503" lon="4.32469">
        <ele>511</ele>
        <time>2025-07-22T22:52:44Z</time>
      </trkpt>
      <trkpt lat="45.71507" lon="4.32483">
        <ele>511</ele>
        <time>2025-07-22T22:52:52Z</time>
      </trkpt>
      <trkpt lat="45.7151" lon="4.32488">
        <ele>511</ele>
        <time>2025-07-22T22:52:56Z</time>
      </trkpt>
      <trkpt lat="45.71513" lon="4.3249">
        <ele>511</ele>
        <time>2025-07-22T22:52:59Z</time>
      </trkpt>
      <trkpt lat="45.71517" lon="4.3249">
        <ele>511</ele>
        <time>2025-07-22T22:53:02Z</time>
      </trkpt>
      <trkpt lat="45.71521" lon="4.32489">
        <ele>511</ele>
        <time>2025-07-22T22:53:05Z</time>
      </trkpt>
      <trkpt lat="45.7153" lon="4.32481">
        <ele>510</ele>
        <time>2025-07-22T22:53:13Z</time>
      </trkpt>
      <trkpt lat="45.71559" lon="4.32452">
        <ele>507</ele>
        <time>2025-07-22T22:53:42Z</time>
      </trkpt>
      <trkpt lat="45.71567" lon="4.32447">
        <ele>506</ele>
        <time>2025-07-22T22:53:49Z</time>
      </trkpt>
      <trkpt lat="45.71568" lon="4.32441">
        <ele>506</ele>
        <time>2025-07-22T22:53:52Z</time>
      </trkpt>
      <trkpt lat="45.71594" lon="4.32407">
        <ele>504</ele>
        <time>2025-07-22T22:54:20Z</time>
      </trkpt>
      <trkpt lat="45.71626" lon="4.32355">
        <ele>504</ele>
        <time>2025-07-22T22:54:59Z</time>
      </trkpt>
      <trkpt lat="45.71635" lon="4.32331">
        <ele>503</ele>
        <time>2025-07-22T22:55:14Z</time>
      </trkpt>
      <trkpt lat="45.71637" lon="4.32335">
        <ele>503</ele>
        <time>2025-07-22T22:55:17Z</time>
      </trkpt>
      <trkpt lat="45.71644" lon="4.32347">
        <ele>504</ele>
        <time>2025-07-22T22:55:26Z</time>
      </trkpt>
      <trkpt lat="45.71647" lon="4.3236">
        <ele>504</ele>
        <time>2025-07-22T22:55:34Z</time>
      </trkpt>
      <trkpt lat="45.71654" lon="4.32405">
        <ele>506</ele>
        <time>2025-07-22T22:55:59Z</time>
      </trkpt>
      <trkpt lat="45.71654" lon="4.32408">
        <ele>506</ele>
        <time>2025-07-22T22:56:01Z</time>
      </trkpt>
      <trkpt lat="45.71658" lon="4.32409">
        <ele>506</ele>
        <time>2025-07-22T22:56:04Z</time>
      </trkpt>
      <trkpt lat="45.71752" lon="4.32391">
        <ele>513</ele>
        <time>2025-07-22T22:57:20Z</time>
      </trkpt>
      <trkpt lat="45.71755" lon="4.324">
        <ele>513</ele>
        <time>2025-07-22T22:57:26Z</time>
      </trkpt>
      <trkpt lat="45.7176" lon="4.32432">
        <ele>515</ele>
        <time>2025-07-22T22:57:44Z</time>
      </trkpt>
      <trkpt lat="45.71761" lon="4.32457">
        <ele>516</ele>
        <time>2025-07-22T22:57:58Z</time>
      </trkpt>
      <trkpt lat="45.71764" lon="4.32492">
        <ele>519</ele>
        <time>2025-07-22T22:58:18Z</time>
      </trkpt>
      <trkpt lat="45.71766" lon="4.32526">
        <ele>521</ele>
        <time>2025-07-22T22:58:37Z</time>
      </trkpt>
      <trkpt lat="45.71767" lon="4.3262">
        <ele>526</ele>
        <time>2025-07-22T22:59:29Z</time>
      </trkpt>
      <trkpt lat="45.71771" lon="4.32679">
        <ele>529</ele>
        <time>2025-07-22T23:00:03Z</time>
      </trkpt>
      <trkpt lat="45.71775" lon="4.32711">
        <ele>530</ele>
        <time>2025-07-22T23:00:21Z</time>
      </trkpt>
      <trkpt lat="45.71785" lon="4.32758">
        <ele>531</ele>
        <time>2025-07-22T23:00:48Z</time>
      </trkpt>
      <trkpt lat="45.71792" lon="4.3281">
        <ele>531</ele>
        <time>2025-07-22T23:01:18Z</time>
      </trkpt>
      <trkpt lat="45.71801" lon="4.32914">
        <ele>532</ele>
        <time>2025-07-22T23:02:16Z</time>
      </trkpt>
      <trkpt lat="45.71809" lon="4.32971">
        <ele>532</ele>
        <time>2025-07-22T23:02:49Z</time>
      </trkpt>
      <trkpt lat="45.71809" lon="4.32972">
        <ele>532</ele>
        <time>2025-07-22T23:02:49Z</time>
      </trkpt>
      <trkpt lat="45.71844" lon="4.32956">
        <ele>531</ele>
        <time>2025-07-22T23:03:19Z</time>
      </trkpt>
      <trkpt lat="45.71881" lon="4.3294">
        <ele>528</ele>
        <time>2025-07-22T23:03:50Z</time>
      </trkpt>
      <trkpt lat="45.71904" lon="4.32924">
        <ele>525</ele>
        <time>2025-07-22T23:04:10Z</time>
      </trkpt>
      <trkpt lat="45.71916" lon="4.32923">
        <ele>524</ele>
        <time>2025-07-22T23:04:20Z</time>
      </trkpt>
      <trkpt lat="45.71933" lon="4.32926">
        <ele>523</ele>
        <time>2025-07-22T23:04:34Z</time>
      </trkpt>
      <trkpt lat="45.71961" lon="4.32929">
        <ele>520</ele>
        <time>2025-07-22T23:04:56Z</time>
      </trkpt>
      <trkpt lat="45.71997" lon="4.32927">
        <ele>516</ele>
        <time>2025-07-22T23:05:25Z</time>
      </trkpt>
      <trkpt lat="45.72015" lon="4.32925">
        <ele>514</ele>
        <time>2025-07-22T23:05:39Z</time>
      </trkpt>
      <trkpt lat="45.72039" lon="4.32914">
        <ele>513</ele>
        <time>2025-07-22T23:06:00Z</time>
      </trkpt>
      <trkpt lat="45.72072" lon="4.32906">
        <ele>511</ele>
        <time>2025-07-22T23:06:26Z</time>
      </trkpt>
      <trkpt lat="45.72107" lon="4.32901">
        <ele>509</ele>
        <time>2025-07-22T23:06:55Z</time>
      </trkpt>
      <trkpt lat="45.72162" lon="4.32895">
        <ele>507</ele>
        <time>2025-07-22T23:07:39Z</time>
      </trkpt>
      <trkpt lat="45.72198" lon="4.32887">
        <ele>506</ele>
        <time>2025-07-22T23:08:08Z</time>
      </trkpt>
      <trkpt lat="45.72213" lon="4.32881">
        <ele>506</ele>
        <time>2025-07-22T23:08:20Z</time>
      </trkpt>
      <trkpt lat="45.7222" lon="4.3288">
        <ele>506</ele>
        <time>2025-07-22T23:08:26Z</time>
      </trkpt>
      <trkpt lat="45.72253" lon="4.32879">
        <ele>506</ele>
        <time>2025-07-22T23:08:52Z</time>
      </trkpt>
      <trkpt lat="45.72284" lon="4.32874">
        <ele>509</ele>
        <time>2025-07-22T23:09:17Z</time>
      </trkpt>
      <trkpt lat="45.72325" lon="4.32862">
        <ele>512</ele>
        <time>2025-07-22T23:09:51Z</time>
      </trkpt>
      <trkpt lat="45.72361" lon="4.32854">
        <ele>514</ele>
        <time>2025-07-22T23:10:20Z</time>
      </trkpt>
      <trkpt lat="45.72388" lon="4.32851">
        <ele>516</ele>
        <time>2025-07-22T23:10:42Z</time>
      </trkpt>
      <trkpt lat="45.72451" lon="4.3284">
        <ele>520</ele>
        <time>2025-07-22T23:11:33Z</time>
      </trkpt>
      <trkpt lat="45.72511" lon="4.32829">
        <ele>524</ele>
        <time>2025-07-22T23:12:21Z</time>
      </trkpt>
      <trkpt lat="45.72517" lon="4.32826">
        <ele>524</ele>
        <time>2025-07-22T23:12:26Z</time>
      </trkpt>
      <trkpt lat="45.72526" lon="4.32826">
        <ele>525</ele>
        <time>2025-07-22T23:12:33Z</time>
      </trkpt>
      <trkpt lat="45.72532" lon="4.32823">
        <ele>525</ele>
        <time>2025-07-22T23:12:38Z</time>
      </trkpt>
      <trkpt lat="45.72562" lon="4.32821">
        <ele>525</ele>
        <time>2025-07-22T23:13:02Z</time>
      </trkpt>
      <trkpt lat="45.72564" lon="4.32821">
        <ele>525</ele>
        <time>2025-07-22T23:13:04Z</time>
      </trkpt>
      <trkpt lat="45.72592" lon="4.32774">
        <ele>525</ele>
        <time>2025-07-22T23:13:39Z</time>
      </trkpt>
      <trkpt lat="45.72602" lon="4.32761">
        <ele>524</ele>
        <time>2025-07-22T23:13:49Z</time>
      </trkpt>
      <trkpt lat="45.72609" lon="4.32752">
        <ele>524</ele>
        <time>2025-07-22T23:13:57Z</time>
      </trkpt>
      <trkpt lat="45.72617" lon="4.32749">
        <ele>524</ele>
        <time>2025-07-22T23:14:04Z</time>
      </trkpt>
      <trkpt lat="45.72628" lon="4.32752">
        <ele>524</ele>
        <time>2025-07-22T23:14:12Z</time>
      </trkpt>
      <trkpt lat="45.7264" lon="4.32757">
        <ele>524</ele>
        <time>2025-07-22T23:14:22Z</time>
      </trkpt>
      <trkpt lat="45.72643" lon="4.32764">
        <ele>524</ele>
        <time>2025-07-22T23:14:27Z</time>
      </trkpt>
      <trkpt lat="45.72658" lon="4.32811">
        <ele>525</ele>
        <time>2025-07-22T23:14:56Z</time>
      </trkpt>
      <trkpt lat="45.72668" lon="4.32837">
        <ele>525</ele>
        <time>2025-07-22T23:15:13Z</time>
      </trkpt>
      <trkpt lat="45.72685" lon="4.32886">
        <ele>524</ele>
        <time>2025-07-22T23:15:43Z</time>
      </trkpt>
      <trkpt lat="45.72691" lon="4.32914">
        <ele>523</ele>
        <time>2025-07-22T23:15:59Z</time>
      </trkpt>
      <trkpt lat="45.72693" lon="4.32945">
        <ele>522</ele>
        <time>2025-07-22T23:16:17Z</time>
      </trkpt>
      <trkpt lat="45.72693" lon="4.32956">
        <ele>522</ele>
        <time>2025-07-22T23:16:23Z</time>
      </trkpt>
      <trkpt lat="45.72693" lon="4.32959">
        <ele>522</ele>
        <time>2025-07-22T23:16:25Z</time>
      </trkpt>
      <trkpt lat="45.72693" lon="4.3298">
        <ele>521</ele>
        <time>2025-07-22T23:16:36Z</time>
      </trkpt>
      <trkpt lat="45.72695" lon="4.3301">
        <ele>520</ele>
        <time>2025-07-22T23:16:53Z</time>
      </trkpt>
      <trkpt lat="45.72697" lon="4.33024">
        <ele>520</ele>
        <time>2025-07-22T23:17:01Z</time>
      </trkpt>
      <trkpt lat="45.72699" lon="4.33038">
        <ele>519</ele>
        <time>2025-07-22T23:17:09Z</time>
      </trkpt>
      <trkpt lat="45.7271" lon="4.33063">
        <ele>517</ele>
        <time>2025-07-22T23:17:26Z</time>
      </trkpt>
      <trkpt lat="45.72726" lon="4.33082">
        <ele>515</ele>
        <time>2025-07-22T23:17:42Z</time>
      </trkpt>
      <trkpt lat="45.72745" lon="4.33099">
        <ele>514</ele>
        <time>2025-07-22T23:18:00Z</time>
      </trkpt>
      <trkpt lat="45.72759" lon="4.33108">
        <ele>515</ele>
        <time>2025-07-22T23:18:13Z</time>
      </trkpt>
      <trkpt lat="45.72773" lon="4.33116">
        <ele>516</ele>
        <time>2025-07-22T23:18:25Z</time>
      </trkpt>
      <trkpt lat="45.72784" lon="4.33118">
        <ele>516</ele>
        <time>2025-07-22T23:18:34Z</time>
      </trkpt>
      <trkpt lat="45.72824" lon="4.33113">
        <ele>515</ele>
        <time>2025-07-22T23:19:06Z</time>
      </trkpt>
      <trkpt lat="45.72834" lon="4.3311">
        <ele>515</ele>
        <time>2025-07-22T23:19:14Z</time>
      </trkpt>
      <trkpt lat="45.72845" lon="4.33105">
        <ele>514</ele>
        <time>2025-07-22T23:19:23Z</time>
      </trkpt>
      <trkpt lat="45.72867" lon="4.33099">
        <ele>512</ele>
        <time>2025-07-22T23:19:41Z</time>
      </trkpt>
      <trkpt lat="45.72876" lon="4.331">
        <ele>511</ele>
        <time>2025-07-22T23:19:48Z</time>
      </trkpt>
      <trkpt lat="45.72889" lon="4.33103">
        <ele>511</ele>
        <time>2025-07-22T23:19:59Z</time>
      </trkpt>
      <trkpt lat="45.72908" lon="4.3312">
        <ele>512</ele>
        <time>2025-07-22T23:20:17Z</time>
      </trkpt>
      <trkpt lat="45.72928" lon="4.33142">
        <ele>514</ele>
        <time>2025-07-22T23:20:37Z</time>
      </trkpt>
      <trkpt lat="45.72938" lon="4.33159">
        <ele>515</ele>
        <time>2025-07-22T23:20:49Z</time>
      </trkpt>
      <trkpt lat="45.7295" lon="4.33187">
        <ele>515</ele>
        <time>2025-07-22T23:21:08Z</time>
      </trkpt>
      <trkpt lat="45.72955" lon="4.33206">
        <ele>515</ele>
        <time>2025-07-22T23:21:19Z</time>
      </trkpt>
      <trkpt lat="45.73025" lon="4.33502">
        <ele>495</ele>
        <time>2025-07-22T23:24:14Z</time>
      </trkpt>
      <trkpt lat="45.73022" lon="4.33638">
        <ele>477</ele>
        <time>2025-07-22T23:25:30Z</time>
      </trkpt>
      <trkpt lat="45.73032" lon="4.33654">
        <ele>474</ele>
        <time>2025-07-22T23:25:42Z</time>
      </trkpt>
      <trkpt lat="45.73039" lon="4.33664">
        <ele>472</ele>
        <time>2025-07-22T23:25:50Z</time>
      </trkpt>
      <trkpt lat="45.73052" lon="4.33676">
        <ele>470</ele>
        <time>2025-07-22T23:26:02Z</time>
      </trkpt>
      <trkpt lat="45.73058" lon="4.33688">
        <ele>468</ele>
        <time>2025-07-22T23:26:10Z</time>
      </trkpt>
      <trkpt lat="45.7306" lon="4.33701">
        <ele>467</ele>
        <time>2025-07-22T23:26:18Z</time>
      </trkpt>
      <trkpt lat="45.73056" lon="4.33719">
        <ele>467</ele>
        <time>2025-07-22T23:26:28Z</time>
      </trkpt>
      <trkpt lat="45.73057" lon="4.33724">
        <ele>466</ele>
        <time>2025-07-22T23:26:31Z</time>
      </trkpt>
      <trkpt lat="45.73066" lon="4.3373">
        <ele>465</ele>
        <time>2025-07-22T23:26:39Z</time>
      </trkpt>
      <trkpt lat="45.7307" lon="4.33738">
        <ele>464</ele>
        <time>2025-07-22T23:26:45Z</time>
      </trkpt>
      <trkpt lat="45.73074" lon="4.33766">
        <ele>463</ele>
        <time>2025-07-22T23:27:01Z</time>
      </trkpt>
      <trkpt lat="45.73084" lon="4.33789">
        <ele>461</ele>
        <time>2025-07-22T23:27:16Z</time>
      </trkpt>
      <trkpt lat="45.73086" lon="4.338">
        <ele>460</ele>
        <time>2025-07-22T23:27:22Z</time>
      </trkpt>
      <trkpt lat="45.73086" lon="4.33808">
        <ele>459</ele>
        <time>2025-07-22T23:27:27Z</time>
      </trkpt>
      <trkpt lat="45.73082" lon="4.33831">
        <ele>458</ele>
        <time>2025-07-22T23:27:40Z</time>
      </trkpt>
      <trkpt lat="45.73083" lon="4.33831">
        <ele>458</ele>
        <time>2025-07-22T23:27:41Z</time>
      </trkpt>
      <trkpt lat="45.73093" lon="4.33836">
        <ele>458</ele>
        <time>2025-07-22T23:27:49Z</time>
      </trkpt>
      <trkpt lat="45.73108" lon="4.33852">
        <ele>458</ele>
        <time>2025-07-22T23:28:04Z</time>
      </trkpt>
      <trkpt lat="45.73115" lon="4.33857">
        <ele>458</ele>
        <time>2025-07-22T23:28:10Z</time>
      </trkpt>
      <trkpt lat="45.7312" lon="4.33862">
        <ele>458</ele>
        <time>2025-07-22T23:28:15Z</time>
      </trkpt>
      <trkpt lat="45.73128" lon="4.33868">
        <ele>458</ele>
        <time>2025-07-22T23:28:23Z</time>
      </trkpt>
      <trkpt lat="45.73145" lon="4.33863">
        <ele>458</ele>
        <time>2025-07-22T23:28:36Z</time>
      </trkpt>
      <trkpt lat="45.73173" lon="4.33844">
        <ele>458</ele>
        <time>2025-07-22T23:29:01Z</time>
      </trkpt>
      <trkpt lat="45.73184" lon="4.33839">
        <ele>459</ele>
        <time>2025-07-22T23:29:11Z</time>
      </trkpt>
      <trkpt lat="45.73223" lon="4.33837">
        <ele>466</ele>
        <time>2025-07-22T23:29:42Z</time>
      </trkpt>
      <trkpt lat="45.73232" lon="4.33834">
        <ele>467</ele>
        <time>2025-07-22T23:29:49Z</time>
      </trkpt>
      <trkpt lat="45.73243" lon="4.33826">
        <ele>468</ele>
        <time>2025-07-22T23:29:59Z</time>
      </trkpt>
      <trkpt lat="45.73253" lon="4.3381">
        <ele>469</ele>
        <time>2025-07-22T23:30:11Z</time>
      </trkpt>
      <trkpt lat="45.7326" lon="4.33798">
        <ele>470</ele>
        <time>2025-07-22T23:30:20Z</time>
      </trkpt>
      <trkpt lat="45.73277" lon="4.33751">
        <ele>472</ele>
        <time>2025-07-22T23:30:49Z</time>
      </trkpt>
      <trkpt lat="45.7329" lon="4.33722">
        <ele>474</ele>
        <time>2025-07-22T23:31:09Z</time>
      </trkpt>
      <trkpt lat="45.73307" lon="4.33684">
        <ele>476</ele>
        <time>2025-07-22T23:31:34Z</time>
      </trkpt>
      <trkpt lat="45.73331" lon="4.33635">
        <ele>478</ele>
        <time>2025-07-22T23:32:07Z</time>
      </trkpt>
      <trkpt lat="45.73338" lon="4.33622">
        <ele>478</ele>
        <time>2025-07-22T23:32:17Z</time>
      </trkpt>
      <trkpt lat="45.73351" lon="4.33608">
        <ele>480</ele>
        <time>2025-07-22T23:32:30Z</time>
      </trkpt>
      <trkpt lat="45.73365" lon="4.33598">
        <ele>482</ele>
        <time>2025-07-22T23:32:42Z</time>
      </trkpt>
      <trkpt lat="45.73382" lon="4.33589">
        <ele>485</ele>
        <time>2025-07-22T23:32:57Z</time>
      </trkpt>
      <trkpt lat="45.73402" lon="4.3357">
        <ele>487</ele>
        <time>2025-07-22T23:33:16Z</time>
      </trkpt>
      <trkpt lat="45.73431" lon="4.33538">
        <ele>488</ele>
        <time>2025-07-22T23:33:45Z</time>
      </trkpt>
      <trkpt lat="45.73441" lon="4.33523">
        <ele>488</ele>
        <time>2025-07-22T23:33:57Z</time>
      </trkpt>
      <trkpt lat="45.73478" lon="4.33504">
        <ele>491</ele>
        <time>2025-07-22T23:34:28Z</time>
      </trkpt>
      <trkpt lat="45.73525" lon="4.33492">
        <ele>494</ele>
        <time>2025-07-22T23:35:06Z</time>
      </trkpt>
      <trkpt lat="45.73541" lon="4.33499">
        <ele>497</ele>
        <time>2025-07-22T23:35:20Z</time>
      </trkpt>
      <trkpt lat="45.73549" lon="4.33499">
        <ele>497</ele>
        <time>2025-07-22T23:35:26Z</time>
      </trkpt>
      <trkpt lat="45.73571" lon="4.33512">
        <ele>501</ele>
        <time>2025-07-22T23:35:45Z</time>
      </trkpt>
      <trkpt lat="45.73578" lon="4.33534">
        <ele>505</ele>
        <time>2025-07-22T23:35:59Z</time>
      </trkpt>
      <trkpt lat="45.73611" lon="4.33602">
        <ele>516</ele>
        <time>2025-07-22T23:36:45Z</time>
      </trkpt>
      <trkpt lat="45.73622" lon="4.3366">
        <ele>524</ele>
        <time>2025-07-22T23:37:19Z</time>
      </trkpt>
      <trkpt lat="45.73614" lon="4.33686">
        <ele>527</ele>
        <time>2025-07-22T23:37:34Z</time>
      </trkpt>
      <trkpt lat="45.73614" lon="4.33698">
        <ele>528</ele>
        <time>2025-07-22T23:37:41Z</time>
      </trkpt>
      <trkpt lat="45.73611" lon="4.33711">
        <ele>530</ele>
        <time>2025-07-22T23:37:49Z</time>
      </trkpt>
      <trkpt lat="45.73613" lon="4.33745">
        <ele>532</ele>
        <time>2025-07-22T23:38:08Z</time>
      </trkpt>
      <trkpt lat="45.73614" lon="4.33769">
        <ele>535</ele>
        <time>2025-07-22T23:38:21Z</time>
      </trkpt>
      <trkpt lat="45.73615" lon="4.33794">
        <ele>537</ele>
        <time>2025-07-22T23:38:35Z</time>
      </trkpt>
      <trkpt lat="45.73631" lon="4.33838">
        <ele>540</ele>
        <time>2025-07-22T23:39:03Z</time>
      </trkpt>
      <trkpt lat="45.73633" lon="4.33878">
        <ele>543</ele>
        <time>2025-07-22T23:39:25Z</time>
      </trkpt>
      <trkpt lat="45.73637" lon="4.33917">
        <ele>545</ele>
        <time>2025-07-22T23:39:48Z</time>
      </trkpt>
      <trkpt lat="45.73633" lon="4.33941">
        <ele>546</ele>
        <time>2025-07-22T23:40:01Z</time>
      </trkpt>
      <trkpt lat="45.73626" lon="4.33959">
        <ele>546</ele>
        <time>2025-07-22T23:40:13Z</time>
      </trkpt>
      <trkpt lat="45.73621" lon="4.33966">
        <ele>547</ele>
        <time>2025-07-22T23:40:18Z</time>
      </trkpt>
      <trkpt lat="45.73618" lon="4.33978">
        <ele>547</ele>
        <time>2025-07-22T23:40:26Z</time>
      </trkpt>
      <trkpt lat="45.73606" lon="4.34001">
        <ele>549</ele>
        <time>2025-07-22T23:40:42Z</time>
      </trkpt>
      <trkpt lat="45.73577" lon="4.34032">
        <ele>549</ele>
        <time>2025-07-22T23:41:11Z</time>
      </trkpt>
      <trkpt lat="45.73567" lon="4.34053">
        <ele>547</ele>
        <time>2025-07-22T23:41:25Z</time>
      </trkpt>
      <trkpt lat="45.73532" lon="4.34114">
        <ele>545</ele>
        <time>2025-07-22T23:42:09Z</time>
      </trkpt>
      <trkpt lat="45.73522" lon="4.34135">
        <ele>545</ele>
        <time>2025-07-22T23:42:23Z</time>
      </trkpt>
      <trkpt lat="45.73523" lon="4.34147">
        <ele>545</ele>
        <time>2025-07-22T23:42:30Z</time>
      </trkpt>
      <trkpt lat="45.7353" lon="4.34163">
        <ele>545</ele>
        <time>2025-07-22T23:42:40Z</time>
      </trkpt>
      <trkpt lat="45.73534" lon="4.34182">
        <ele>544</ele>
        <time>2025-07-22T23:42:51Z</time>
      </trkpt>
      <trkpt lat="45.73535" lon="4.34206">
        <ele>542</ele>
        <time>2025-07-22T23:43:05Z</time>
      </trkpt>
      <trkpt lat="45.73577" lon="4.34226">
        <ele>544</ele>
        <time>2025-07-22T23:43:40Z</time>
      </trkpt>
      <trkpt lat="45.73597" lon="4.34239">
        <ele>544</ele>
        <time>2025-07-22T23:43:58Z</time>
      </trkpt>
      <trkpt lat="45.73614" lon="4.34253">
        <ele>544</ele>
        <time>2025-07-22T23:44:14Z</time>
      </trkpt>
      <trkpt lat="45.73626" lon="4.34272">
        <ele>543</ele>
        <time>2025-07-22T23:44:28Z</time>
      </trkpt>
      <trkpt lat="45.73628" lon="4.34299">
        <ele>543</ele>
        <time>2025-07-22T23:44:43Z</time>
      </trkpt>
      <trkpt lat="45.73622" lon="4.34332">
        <ele>542</ele>
        <time>2025-07-22T23:45:02Z</time>
      </trkpt>
      <trkpt lat="45.73605" lon="4.34392">
        <ele>540</ele>
        <time>2025-07-22T23:45:38Z</time>
      </trkpt>
      <trkpt lat="45.73612" lon="4.34391">
        <ele>540</ele>
        <time>2025-07-22T23:45:44Z</time>
      </trkpt>
      <trkpt lat="45.73624" lon="4.34388">
        <ele>540</ele>
        <time>2025-07-22T23:45:54Z</time>
      </trkpt>
      <trkpt lat="45.73662" lon="4.3437">
        <ele>542</ele>
        <time>2025-07-22T23:46:26Z</time>
      </trkpt>
      <trkpt lat="45.73687" lon="4.34364">
        <ele>543</ele>
        <time>2025-07-22T23:46:46Z</time>
      </trkpt>
      <trkpt lat="45.737" lon="4.34358">
        <ele>543</ele>
        <time>2025-07-22T23:46:57Z</time>
      </trkpt>
      <trkpt lat="45.7374" lon="4.3435">
        <ele>545</ele>
        <time>2025-07-22T23:47:29Z</time>
      </trkpt>
      <trkpt lat="45.73791" lon="4.34349">
        <ele>546</ele>
        <time>2025-07-22T23:48:10Z</time>
      </trkpt>
      <trkpt lat="45.73804" lon="4.34351">
        <ele>546</ele>
        <time>2025-07-22T23:48:21Z</time>
      </trkpt>
      <trkpt lat="45.73839" lon="4.34354">
        <ele>546</ele>
        <time>2025-07-22T23:48:49Z</time>
      </trkpt>
      <trkpt lat="45.73874" lon="4.34348">
        <ele>547</ele>
        <time>2025-07-22T23:49:17Z</time>
      </trkpt>
      <trkpt lat="45.73952" lon="4.34339">
        <ele>550</ele>
        <time>2025-07-22T23:50:20Z</time>
      </trkpt>
      <trkpt lat="45.7399" lon="4.34333">
        <ele>551</ele>
        <time>2025-07-22T23:50:50Z</time>
      </trkpt>
      <trkpt lat="45.74078" lon="4.34321">
        <ele>554</ele>
        <time>2025-07-22T23:52:01Z</time>
      </trkpt>
      <trkpt lat="45.7416" lon="4.34296">
        <ele>556</ele>
        <time>2025-07-22T23:53:08Z</time>
      </trkpt>
      <trkpt lat="45.74173" lon="4.3429">
        <ele>556</ele>
        <time>2025-07-22T23:53:19Z</time>
      </trkpt>
      <trkpt lat="45.74273" lon="4.34277">
        <ele>554</ele>
        <time>2025-07-22T23:54:39Z</time>
      </trkpt>
      <trkpt lat="45.74284" lon="4.3428">
        <ele>554</ele>
        <time>2025-07-22T23:54:48Z</time>
      </trkpt>
      <trkpt lat="45.74328" lon="4.34308">
        <ele>555</ele>
        <time>2025-07-22T23:55:27Z</time>
      </trkpt>
      <trkpt lat="45.74337" lon="4.34309">
        <ele>555</ele>
        <time>2025-07-22T23:55:34Z</time>
      </trkpt>
      <trkpt lat="45.74332" lon="4.34293">
        <ele>554</ele>
        <time>2025-07-22T23:55:44Z</time>
      </trkpt>
      <trkpt lat="45.74337" lon="4.34309">
        <ele>555</ele>
        <time>2025-07-22T23:55:54Z</time>
      </trkpt>
      <trkpt lat="45.7436" lon="4.343">
        <ele>555</ele>
        <time>2025-07-22T23:56:13Z</time>
      </trkpt>
      <trkpt lat="45.74389" lon="4.34293">
        <ele>555</ele>
        <time>2025-07-22T23:56:36Z</time>
      </trkpt>
      <trkpt lat="45.74428" lon="4.3428">
        <ele>555</ele>
        <time>2025-07-22T23:57:09Z</time>
      </trkpt>
      <trkpt lat="45.74456" lon="4.34264">
        <ele>554</ele>
        <time>2025-07-22T23:57:33Z</time>
      </trkpt>
      <trkpt lat="45.7447" lon="4.34259">
        <ele>554</ele>
        <time>2025-07-22T23:57:44Z</time>
      </trkpt>
      <trkpt lat="45.74486" lon="4.34257">
        <ele>555</ele>
        <time>2025-07-22T23:57:57Z</time>
      </trkpt>
      <trkpt lat="45.74524" lon="4.34257">
        <ele>555</ele>
        <time>2025-07-22T23:58:28Z</time>
      </trkpt>
      <trkpt lat="45.74547" lon="4.34257">
        <ele>555</ele>
        <time>2025-07-22T23:58:46Z</time>
      </trkpt>
      <trkpt lat="45.74569" lon="4.34255">
        <ele>555</ele>
        <time>2025-07-22T23:59:04Z</time>
      </trkpt>
      <trkpt lat="45.74592" lon="4.34252">
        <ele>555</ele>
        <time>2025-07-22T23:59:22Z</time>
      </trkpt>
      <trkpt lat="45.74634" lon="4.34243">
        <ele>553</ele>
        <time>2025-07-22T23:59:56Z</time>
      </trkpt>
      <trkpt lat="45.74669" lon="4.34238">
        <ele>552</ele>
        <time>2025-07-23T00:00:24Z</time>
      </trkpt>
      <trkpt lat="45.74683" lon="4.34234">
        <ele>552</ele>
        <time>2025-07-23T00:00:36Z</time>
      </trkpt>
      <trkpt lat="45.74825" lon="4.34205">
        <ele>549</ele>
        <time>2025-07-23T00:02:30Z</time>
      </trkpt>
      <trkpt lat="45.74874" lon="4.34197">
        <ele>549</ele>
        <time>2025-07-23T00:03:10Z</time>
      </trkpt>
      <trkpt lat="45.74888" lon="4.34196">
        <ele>549</ele>
        <time>2025-07-23T00:03:21Z</time>
      </trkpt>
      <trkpt lat="45.75012" lon="4.34153">
        <ele>543</ele>
        <time>2025-07-23T00:05:03Z</time>
      </trkpt>
      <trkpt lat="45.75057" lon="4.34153">
        <ele>537</ele>
        <time>2025-07-23T00:05:39Z</time>
      </trkpt>
      <trkpt lat="45.75129" lon="4.34123">
        <ele>522</ele>
        <time>2025-07-23T00:06:39Z</time>
      </trkpt>
      <trkpt lat="45.7516" lon="4.34099">
        <ele>515</ele>
        <time>2025-07-23T00:07:08Z</time>
      </trkpt>
      <trkpt lat="45.75218" lon="4.34053">
        <ele>508</ele>
        <time>2025-07-23T00:08:01Z</time>
      </trkpt>
      <trkpt lat="45.75305" lon="4.33954">
        <ele>496</ele>
        <time>2025-07-23T00:09:30Z</time>
      </trkpt>
      <trkpt lat="45.75337" lon="4.33912">
        <ele>493</ele>
        <time>2025-07-23T00:10:04Z</time>
      </trkpt>
      <trkpt lat="45.75353" lon="4.339">
        <ele>488</ele>
        <time>2025-07-23T00:10:19Z</time>
      </trkpt>
      <trkpt lat="45.75365" lon="4.33863">
        <ele>483</ele>
        <time>2025-07-23T00:10:42Z</time>
      </trkpt>
      <trkpt lat="45.75369" lon="4.33825">
        <ele>480</ele>
        <time>2025-07-23T00:11:03Z</time>
      </trkpt>
      <trkpt lat="45.75369" lon="4.33802">
        <ele>479</ele>
        <time>2025-07-23T00:11:16Z</time>
      </trkpt>
      <trkpt lat="45.75377" lon="4.33768">
        <ele>475</ele>
        <time>2025-07-23T00:11:36Z</time>
      </trkpt>
      <trkpt lat="45.75376" lon="4.33761">
        <ele>475</ele>
        <time>2025-07-23T00:11:40Z</time>
      </trkpt>
      <trkpt lat="45.75366" lon="4.33723">
        <ele>474</ele>
        <time>2025-07-23T00:12:03Z</time>
      </trkpt>
      <trkpt lat="45.75361" lon="4.33707">
        <ele>474</ele>
        <time>2025-07-23T00:12:12Z</time>
      </trkpt>
      <trkpt lat="45.75355" lon="4.3369">
        <ele>473</ele>
        <time>2025-07-23T00:12:23Z</time>
      </trkpt>
      <trkpt lat="45.75348" lon="4.33653">
        <ele>471</ele>
        <time>2025-07-23T00:12:45Z</time>
      </trkpt>
      <trkpt lat="45.75345" lon="4.33639">
        <ele>471</ele>
        <time>2025-07-23T00:12:53Z</time>
      </trkpt>
      <trkpt lat="45.75337" lon="4.33604">
        <ele>470</ele>
        <time>2025-07-23T00:13:13Z</time>
      </trkpt>
      <trkpt lat="45.75327" lon="4.33569">
        <ele>470</ele>
        <time>2025-07-23T00:13:34Z</time>
      </trkpt>
      <trkpt lat="45.75316" lon="4.33532">
        <ele>470</ele>
        <time>2025-07-23T00:13:57Z</time>
      </trkpt>
      <trkpt lat="45.75311" lon="4.33488">
        <ele>470</ele>
        <time>2025-07-23T00:14:22Z</time>
      </trkpt>
      <trkpt lat="45.75311" lon="4.33454">
        <ele>471</ele>
        <time>2025-07-23T00:14:41Z</time>
      </trkpt>
      <trkpt lat="45.75313" lon="4.33411">
        <ele>472</ele>
        <time>2025-07-23T00:15:05Z</time>
      </trkpt>
      <trkpt lat="45.75314" lon="4.33371">
        <ele>471</ele>
        <time>2025-07-23T00:15:27Z</time>
      </trkpt>
      <trkpt lat="45.75309" lon="4.33318">
        <ele>471</ele>
        <time>2025-07-23T00:15:57Z</time>
      </trkpt>
      <trkpt lat="45.75298" lon="4.3328">
        <ele>470</ele>
        <time>2025-07-23T00:16:20Z</time>
      </trkpt>
      <trkpt lat="45.75276" lon="4.3323">
        <ele>470</ele>
        <time>2025-07-23T00:16:53Z</time>
      </trkpt>
      <trkpt lat="45.75259" lon="4.33199">
        <ele>470</ele>
        <time>2025-07-23T00:17:15Z</time>
      </trkpt>
      <trkpt lat="45.7524" lon="4.33163">
        <ele>471</ele>
        <time>2025-07-23T00:17:40Z</time>
      </trkpt>
      <trkpt lat="45.75233" lon="4.3315">
        <ele>471</ele>
        <time>2025-07-23T00:17:50Z</time>
      </trkpt>
      <trkpt lat="45.75226" lon="4.33135">
        <ele>472</ele>
        <time>2025-07-23T00:18:00Z</time>
      </trkpt>
      <trkpt lat="45.75215" lon="4.33091">
        <ele>471</ele>
        <time>2025-07-23T00:18:26Z</time>
      </trkpt>
      <trkpt lat="45.75205" lon="4.33067">
        <ele>471</ele>
        <time>2025-07-23T00:18:41Z</time>
      </trkpt>
      <trkpt lat="45.75194" lon="4.3305">
        <ele>471</ele>
        <time>2025-07-23T00:18:54Z</time>
      </trkpt>
      <trkpt lat="45.75165" lon="4.33011">
        <ele>471</ele>
        <time>2025-07-23T00:19:26Z</time>
      </trkpt>
      <trkpt lat="45.75147" lon="4.32993">
        <ele>471</ele>
        <time>2025-07-23T00:19:44Z</time>
      </trkpt>
      <trkpt lat="45.75139" lon="4.32986">
        <ele>471</ele>
        <time>2025-07-23T00:19:51Z</time>
      </trkpt>
      <trkpt lat="45.75127" lon="4.3298">
        <ele>472</ele>
        <time>2025-07-23T00:20:01Z</time>
      </trkpt>
      <trkpt lat="45.75112" lon="4.32977">
        <ele>472</ele>
        <time>2025-07-23T00:20:14Z</time>
      </trkpt>
      <trkpt lat="45.75117" lon="4.32974">
        <ele>472</ele>
        <time>2025-07-23T00:20:18Z</time>
      </trkpt>
      <trkpt lat="45.75144" lon="4.32959">
        <ele>470</ele>
        <time>2025-07-23T00:20:41Z</time>
      </trkpt>
      <trkpt lat="45.75161" lon="4.32951">
        <ele>469</ele>
        <time>2025-07-23T00:20:55Z</time>
      </trkpt>
      <trkpt lat="45.75187" lon="4.32942">
        <ele>466</ele>
        <time>2025-07-23T00:21:17Z</time>
      </trkpt>
      <trkpt lat="45.75193" lon="4.32937">
        <ele>465</ele>
        <time>2025-07-23T00:21:22Z</time>
      </trkpt>
      <trkpt lat="45.75212" lon="4.32912">
        <ele>464</ele>
        <time>2025-07-23T00:21:43Z</time>
      </trkpt>
      <trkpt lat="45.75247" lon="4.32856">
        <ele>461</ele>
        <time>2025-07-23T00:22:25Z</time>
      </trkpt>
      <trkpt lat="45.75266" lon="4.32825">
        <ele>461</ele>
        <time>2025-07-23T00:22:48Z</time>
      </trkpt>
      <trkpt lat="45.75269" lon="4.32813">
        <ele>462</ele>
        <time>2025-07-23T00:22:55Z</time>
      </trkpt>
      <trkpt lat="45.75269" lon="4.328">
        <ele>462</ele>
        <time>2025-07-23T00:23:02Z</time>
      </trkpt>
      <trkpt lat="45.75273" lon="4.32781">
        <ele>462</ele>
        <time>2025-07-23T00:23:14Z</time>
      </trkpt>
      <trkpt lat="45.75277" lon="4.32771">
        <ele>462</ele>
        <time>2025-07-23T00:23:20Z</time>
      </trkpt>
      <trkpt lat="45.75278" lon="4.32772">
        <ele>462</ele>
        <time>2025-07-23T00:23:21Z</time>
      </trkpt>
      <trkpt lat="45.7528" lon="4.32774">
        <ele>462</ele>
        <time>2025-07-23T00:23:23Z</time>
      </trkpt>
      <trkpt lat="45.75296" lon="4.32785">
        <ele>462</ele>
        <time>2025-07-23T00:23:37Z</time>
      </trkpt>
      <trkpt lat="45.75306" lon="4.32787">
        <ele>462</ele>
        <time>2025-07-23T00:23:45Z</time>
      </trkpt>
      <trkpt lat="45.75327" lon="4.3279">
        <ele>462</ele>
        <time>2025-07-23T00:24:02Z</time>
      </trkpt>
      <trkpt lat="45.7534" lon="4.32793">
        <ele>463</ele>
        <time>2025-07-23T00:24:13Z</time>
      </trkpt>
      <trkpt lat="45.75347" lon="4.32793">
        <ele>464</ele>
        <time>2025-07-23T00:24:18Z</time>
      </trkpt>
      <trkpt lat="45.75353" lon="4.32795">
        <ele>465</ele>
        <time>2025-07-23T00:24:23Z</time>
      </trkpt>
      <trkpt lat="45.75373" lon="4.32778">
        <ele>468</ele>
        <time>2025-07-23T00:24:42Z</time>
      </trkpt>
      <trkpt lat="45.75373" lon="4.3278">
        <ele>468</ele>
        <time>2025-07-23T00:24:43Z</time>
      </trkpt>
      <trkpt lat="45.75373" lon="4.32778">
        <ele>468</ele>
        <time>2025-07-23T00:24:44Z</time>
      </trkpt>
      <trkpt lat="45.75384" lon="4.32676">
        <ele>469</ele>
        <time>2025-07-23T00:25:42Z</time>
      </trkpt>
      <trkpt lat="45.75393" lon="4.32625">
        <ele>467</ele>
        <time>2025-07-23T00:26:11Z</time>
      </trkpt>
      <trkpt lat="45.75394" lon="4.32621">
        <ele>467</ele>
        <time>2025-07-23T00:26:13Z</time>
      </trkpt>
      <trkpt lat="45.75426" lon="4.32558">
        <ele>468</ele>
        <time>2025-07-23T00:26:57Z</time>
      </trkpt>
      <trkpt lat="45.75419" lon="4.32453">
        <ele>471</ele>
        <time>2025-07-23T00:27:56Z</time>
      </trkpt>
      <trkpt lat="45.75424" lon="4.32391">
        <ele>473</ele>
        <time>2025-07-23T00:28:31Z</time>
      </trkpt>
      <trkpt lat="45.75438" lon="4.32364">
        <ele>475</ele>
        <time>2025-07-23T00:28:50Z</time>
      </trkpt>
      <trkpt lat="45.75451" lon="4.32315">
        <ele>476</ele>
        <time>2025-07-23T00:29:19Z</time>
      </trkpt>
      <trkpt lat="45.75444" lon="4.32265">
        <ele>472</ele>
        <time>2025-07-23T00:29:47Z</time>
      </trkpt>
      <trkpt lat="45.75447" lon="4.32224">
        <ele>471</ele>
        <time>2025-07-23T00:30:10Z</time>
      </trkpt>
      <trkpt lat="45.75447" lon="4.32135">
        <ele>472</ele>
        <time>2025-07-23T00:31:00Z</time>
      </trkpt>
      <trkpt lat="45.75447" lon="4.32115">
        <ele>474</ele>
        <time>2025-07-23T00:31:11Z</time>
      </trkpt>
      <trkpt lat="45.75457" lon="4.32126">
        <ele>476</ele>
        <time>2025-07-23T00:31:21Z</time>
      </trkpt>
      <trkpt lat="45.75462" lon="4.32137">
        <ele>476</ele>
        <time>2025-07-23T00:31:29Z</time>
      </trkpt>
      <trkpt lat="45.7547" lon="4.32139">
        <ele>478</ele>
        <time>2025-07-23T00:31:35Z</time>
      </trkpt>
      <trkpt lat="45.75585" lon="4.32141">
        <ele>502</ele>
        <time>2025-07-23T00:33:07Z</time>
      </trkpt>
      <trkpt lat="45.75595" lon="4.32134">
        <ele>504</ele>
        <time>2025-07-23T00:33:16Z</time>
      </trkpt>
      <trkpt lat="45.75599" lon="4.3213">
        <ele>505</ele>
        <time>2025-07-23T00:33:20Z</time>
      </trkpt>
      <trkpt lat="45.7562" lon="4.3214">
        <ele>506</ele>
        <time>2025-07-23T00:33:38Z</time>
      </trkpt>
      <trkpt lat="45.7563" lon="4.32147">
        <ele>506</ele>
        <time>2025-07-23T00:33:47Z</time>
      </trkpt>
      <trkpt lat="45.75648" lon="4.32157">
        <ele>507</ele>
        <time>2025-07-23T00:34:02Z</time>
      </trkpt>
      <trkpt lat="45.75686" lon="4.32168">
        <ele>511</ele>
        <time>2025-07-23T00:34:33Z</time>
      </trkpt>
      <trkpt lat="45.75709" lon="4.32181">
        <ele>514</ele>
        <time>2025-07-23T00:34:53Z</time>
      </trkpt>
      <trkpt lat="45.75723" lon="4.32187">
        <ele>516</ele>
        <time>2025-07-23T00:35:05Z</time>
      </trkpt>
      <trkpt lat="45.75765" lon="4.32226">
        <ele>520</ele>
        <time>2025-07-23T00:35:45Z</time>
      </trkpt>
      <trkpt lat="45.75777" lon="4.32243">
        <ele>520</ele>
        <time>2025-07-23T00:35:58Z</time>
      </trkpt>
      <trkpt lat="45.75789" lon="4.32263">
        <ele>522</ele>
        <time>2025-07-23T00:36:13Z</time>
      </trkpt>
      <trkpt lat="45.75794" lon="4.32281">
        <ele>523</ele>
        <time>2025-07-23T00:36:24Z</time>
      </trkpt>
      <trkpt lat="45.75794" lon="4.32279">
        <ele>523</ele>
        <time>2025-07-23T00:36:25Z</time>
      </trkpt>
      <trkpt lat="45.75794" lon="4.32281">
        <ele>523</ele>
        <time>2025-07-23T00:36:26Z</time>
      </trkpt>
      <trkpt lat="45.75777" lon="4.3233">
        <ele>523</ele>
        <time>2025-07-23T00:36:57Z</time>
      </trkpt>
      <trkpt lat="45.75772" lon="4.32345">
        <ele>523</ele>
        <time>2025-07-23T00:37:06Z</time>
      </trkpt>
      <trkpt lat="45.75768" lon="4.32366">
        <ele>523</ele>
        <time>2025-07-23T00:37:18Z</time>
      </trkpt>
      <trkpt lat="45.75785" lon="4.32382">
        <ele>525</ele>
        <time>2025-07-23T00:37:34Z</time>
      </trkpt>
      <trkpt lat="45.75791" lon="4.32386">
        <ele>526</ele>
        <time>2025-07-23T00:37:40Z</time>
      </trkpt>
      <trkpt lat="45.75797" lon="4.32388">
        <ele>526</ele>
        <time>2025-07-23T00:37:45Z</time>
      </trkpt>
      <trkpt lat="45.75799" lon="4.3238">
        <ele>526</ele>
        <time>2025-07-23T00:37:49Z</time>
      </trkpt>
      <trkpt lat="45.75809" lon="4.32372">
        <ele>527</ele>
        <time>2025-07-23T00:37:59Z</time>
      </trkpt>
      <trkpt lat="45.75824" lon="4.32363">
        <ele>529</ele>
        <time>2025-07-23T00:38:12Z</time>
      </trkpt>
      <trkpt lat="45.75838" lon="4.32359">
        <ele>530</ele>
        <time>2025-07-23T00:38:23Z</time>
      </trkpt>
      <trkpt lat="45.75849" lon="4.32359">
        <ele>532</ele>
        <time>2025-07-23T00:38:32Z</time>
      </trkpt>
      <trkpt lat="45.75881" lon="4.32363">
        <ele>535</ele>
        <time>2025-07-23T00:38:58Z</time>
      </trkpt>
      <trkpt lat="45.75904" lon="4.32368">
        <ele>537</ele>
        <time>2025-07-23T00:39:16Z</time>
      </trkpt>
      <trkpt lat="45.75912" lon="4.32373">
        <ele>538</ele>
        <time>2025-07-23T00:39:23Z</time>
      </trkpt>
      <trkpt lat="45.75957" lon="4.32402">
        <ele>540</ele>
        <time>2025-07-23T00:40:03Z</time>
      </trkpt>
      <trkpt lat="45.76028" lon="4.32469">
        <ele>539</ele>
        <time>2025-07-23T00:41:11Z</time>
      </trkpt>
      <trkpt lat="45.76046" lon="4.32494">
        <ele>540</ele>
        <time>2025-07-23T00:41:31Z</time>
      </trkpt>
      <trkpt lat="45.76069" lon="4.32545">
        <ele>548</ele>
        <time>2025-07-23T00:42:05Z</time>
      </trkpt>
      <trkpt lat="45.76081" lon="4.32575">
        <ele>553</ele>
        <time>2025-07-23T00:42:24Z</time>
      </trkpt>
      <trkpt lat="45.76099" lon="4.32597">
        <ele>554</ele>
        <time>2025-07-23T00:42:43Z</time>
      </trkpt>
      <trkpt lat="45.76116" lon="4.32625">
        <ele>555</ele>
        <time>2025-07-23T00:43:04Z</time>
      </trkpt>
      <trkpt lat="45.76118" lon="4.32667">
        <ele>558</ele>
        <time>2025-07-23T00:43:27Z</time>
      </trkpt>
      <trkpt lat="45.76116" lon="4.32706">
        <ele>557</ele>
        <time>2025-07-23T00:43:49Z</time>
      </trkpt>
      <trkpt lat="45.76121" lon="4.32733">
        <ele>556</ele>
        <time>2025-07-23T00:44:05Z</time>
      </trkpt>
      <trkpt lat="45.76105" lon="4.32818">
        <ele>549</ele>
        <time>2025-07-23T00:44:54Z</time>
      </trkpt>
      <trkpt lat="45.76101" lon="4.32854">
        <ele>546</ele>
        <time>2025-07-23T00:45:14Z</time>
      </trkpt>
      <trkpt lat="45.76092" lon="4.32888">
        <ele>545</ele>
        <time>2025-07-23T00:45:35Z</time>
      </trkpt>
      <trkpt lat="45.76089" lon="4.32909">
        <ele>543</ele>
        <time>2025-07-23T00:45:46Z</time>
      </trkpt>
      <trkpt lat="45.76092" lon="4.32958">
        <ele>543</ele>
        <time>2025-07-23T00:46:14Z</time>
      </trkpt>
      <trkpt lat="45.76105" lon="4.33009">
        <ele>543</ele>
        <time>2025-07-23T00:46:44Z</time>
      </trkpt>
      <trkpt lat="45.76145" lon="4.33088">
        <ele>546</ele>
        <time>2025-07-23T00:47:39Z</time>
      </trkpt>
      <trkpt lat="45.76158" lon="4.33124">
        <ele>546</ele>
        <time>2025-07-23T00:48:01Z</time>
      </trkpt>
      <trkpt lat="45.76175" lon="4.33155">
        <ele>546</ele>
        <time>2025-07-23T00:48:23Z</time>
      </trkpt>
      <trkpt lat="45.762" lon="4.33197">
        <ele>545</ele>
        <time>2025-07-23T00:48:54Z</time>
      </trkpt>
      <trkpt lat="45.76224" lon="4.33225">
        <ele>545</ele>
        <time>2025-07-23T00:49:19Z</time>
      </trkpt>
      <trkpt lat="45.76231" lon="4.33231">
        <ele>545</ele>
        <time>2025-07-23T00:49:26Z</time>
      </trkpt>
      <trkpt lat="45.76272" lon="4.33277">
        <ele>543</ele>
        <time>2025-07-23T00:50:07Z</time>
      </trkpt>
      <trkpt lat="45.7632" lon="4.33344">
        <ele>541</ele>
        <time>2025-07-23T00:51:01Z</time>
      </trkpt>
      <trkpt lat="45.76347" lon="4.33395">
        <ele>540</ele>
        <time>2025-07-23T00:51:37Z</time>
      </trkpt>
      <trkpt lat="45.7636" lon="4.33397">
        <ele>539</ele>
        <time>2025-07-23T00:51:47Z</time>
      </trkpt>
      <trkpt lat="45.76371" lon="4.334">
        <ele>538</ele>
        <time>2025-07-23T00:51:56Z</time>
      </trkpt>
      <trkpt lat="45.76412" lon="4.33417">
        <ele>535</ele>
        <time>2025-07-23T00:52:30Z</time>
      </trkpt>
      <trkpt lat="45.7642" lon="4.33419">
        <ele>535</ele>
        <time>2025-07-23T00:52:37Z</time>
      </trkpt>
      <trkpt lat="45.76424" lon="4.33418">
        <ele>535</ele>
        <time>2025-07-23T00:52:40Z</time>
      </trkpt>
      <trkpt lat="45.76429" lon="4.3342">
        <ele>535</ele>
        <time>2025-07-23T00:52:44Z</time>
      </trkpt>
      <trkpt lat="45.76507" lon="4.33448">
        <ele>538</ele>
        <time>2025-07-23T00:53:49Z</time>
      </trkpt>
      <trkpt lat="45.76538" lon="4.33453">
        <ele>538</ele>
        <time>2025-07-23T00:54:14Z</time>
      </trkpt>
      <trkpt lat="45.76613" lon="4.33451">
        <ele>538</ele>
        <time>2025-07-23T00:55:14Z</time>
      </trkpt>
      <trkpt lat="45.76673" lon="4.33463">
        <ele>542</ele>
        <time>2025-07-23T00:56:02Z</time>
      </trkpt>
      <trkpt lat="45.76707" lon="4.33475">
        <ele>543</ele>
        <time>2025-07-23T00:56:30Z</time>
      </trkpt>
      <trkpt lat="45.76725" lon="4.33476">
        <ele>542</ele>
        <time>2025-07-23T00:56:45Z</time>
      </trkpt>
      <trkpt lat="45.76726" lon="4.33466">
        <ele>542</ele>
        <time>2025-07-23T00:56:50Z</time>
      </trkpt>
      <trkpt lat="45.76729" lon="4.33449">
        <ele>540</ele>
        <time>2025-07-23T00:57:00Z</time>
      </trkpt>
      <trkpt lat="45.76734" lon="4.33431">
        <ele>539</ele>
        <time>2025-07-23T00:57:11Z</time>
      </trkpt>
      <trkpt lat="45.76763" lon="4.33411">
        <ele>540</ele>
        <time>2025-07-23T00:57:37Z</time>
      </trkpt>
      <trkpt lat="45.768" lon="4.33383">
        <ele>544</ele>
        <time>2025-07-23T00:58:10Z</time>
      </trkpt>
      <trkpt lat="45.76834" lon="4.33368">
        <ele>547</ele>
        <time>2025-07-23T00:58:39Z</time>
      </trkpt>
      <trkpt lat="45.76878" lon="4.33342">
        <ele>553</ele>
        <time>2025-07-23T00:59:17Z</time>
      </trkpt>
      <trkpt lat="45.7712" lon="4.33275">
        <ele>571</ele>
        <time>2025-07-23T01:02:34Z</time>
      </trkpt>
      <trkpt lat="45.77126" lon="4.3328">
        <ele>571</ele>
        <time>2025-07-23T01:02:40Z</time>
      </trkpt>
      <trkpt lat="45.77199" lon="4.33261">
        <ele>576</ele>
        <time>2025-07-23T01:03:39Z</time>
      </trkpt>
      <trkpt lat="45.77221" lon="4.33256">
        <ele>577</ele>
        <time>2025-07-23T01:03:57Z</time>
      </trkpt>
      <trkpt lat="45.77241" lon="4.33256">
        <ele>578</ele>
        <time>2025-07-23T01:04:13Z</time>
      </trkpt>
      <trkpt lat="45.77286" lon="4.3327">
        <ele>581</ele>
        <time>2025-07-23T01:04:50Z</time>
      </trkpt>
      <trkpt lat="45.77287" lon="4.33264">
        <ele>581</ele>
        <time>2025-07-23T01:04:53Z</time>
      </trkpt>
      <trkpt lat="45.77286" lon="4.3327">
        <ele>581</ele>
        <time>2025-07-23T01:04:57Z</time>
      </trkpt>
      <trkpt lat="45.77285" lon="4.33282">
        <ele>581</ele>
        <time>2025-07-23T01:05:03Z</time>
      </trkpt>
      <trkpt lat="45.77296" lon="4.33329">
        <ele>584</ele>
        <time>2025-07-23T01:05:31Z</time>
      </trkpt>
      <trkpt lat="45.77298" lon="4.33336">
        <ele>584</ele>
        <time>2025-07-23T01:05:35Z</time>
      </trkpt>
      <trkpt lat="45.77298" lon="4.33372">
        <ele>584</ele>
        <time>2025-07-23T01:05:55Z</time>
      </trkpt>
      <trkpt lat="45.77296" lon="4.33385">
        <ele>584</ele>
        <time>2025-07-23T01:06:03Z</time>
      </trkpt>
      <trkpt lat="45.77281" lon="4.33438">
        <ele>580</ele>
        <time>2025-07-23T01:06:35Z</time>
      </trkpt>
      <trkpt lat="45.77271" lon="4.3348">
        <ele>578</ele>
        <time>2025-07-23T01:07:00Z</time>
      </trkpt>
      <trkpt lat="45.7727" lon="4.33489">
        <ele>578</ele>
        <time>2025-07-23T01:07:05Z</time>
      </trkpt>
      <trkpt lat="45.77268" lon="4.33512">
        <ele>577</ele>
        <time>2025-07-23T01:07:18Z</time>
      </trkpt>
      <trkpt lat="45.77276" lon="4.33543">
        <ele>575</ele>
        <time>2025-07-23T01:07:36Z</time>
      </trkpt>
      <trkpt lat="45.77293" lon="4.33564">
        <ele>575</ele>
        <time>2025-07-23T01:07:54Z</time>
      </trkpt>
      <trkpt lat="45.77339" lon="4.3361">
        <ele>574</ele>
        <time>2025-07-23T01:08:39Z</time>
      </trkpt>
      <trkpt lat="45.77357" lon="4.33631">
        <ele>575</ele>
        <time>2025-07-23T01:08:58Z</time>
      </trkpt>
      <trkpt lat="45.77365" lon="4.33643">
        <ele>575</ele>
        <time>2025-07-23T01:09:07Z</time>
      </trkpt>
      <trkpt lat="45.77371" lon="4.33654">
        <ele>575</ele>
        <time>2025-07-23T01:09:15Z</time>
      </trkpt>
      <trkpt lat="45.77375" lon="4.33667">
        <ele>575</ele>
        <time>2025-07-23T01:09:23Z</time>
      </trkpt>
      <trkpt lat="45.77379" lon="4.33697">
        <ele>576</ele>
        <time>2025-07-23T01:09:40Z</time>
      </trkpt>
      <trkpt lat="45.77379" lon="4.33709">
        <ele>576</ele>
        <time>2025-07-23T01:09:46Z</time>
      </trkpt>
      <trkpt lat="45.7737" lon="4.33741">
        <ele>576</ele>
        <time>2025-07-23T01:10:06Z</time>
      </trkpt>
      <trkpt lat="45.77361" lon="4.33787">
        <ele>578</ele>
        <time>2025-07-23T01:10:32Z</time>
      </trkpt>
      <trkpt lat="45.77345" lon="4.33841">
        <ele>580</ele>
        <time>2025-07-23T01:11:05Z</time>
      </trkpt>
      <trkpt lat="45.77339" lon="4.33868">
        <ele>580</ele>
        <time>2025-07-23T01:11:21Z</time>
      </trkpt>
      <trkpt lat="45.77336" lon="4.33882">
        <ele>580</ele>
        <time>2025-07-23T01:11:29Z</time>
      </trkpt>
      <trkpt lat="45.77333" lon="4.33905">
        <ele>581</ele>
        <time>2025-07-23T01:11:42Z</time>
      </trkpt>
      <trkpt lat="45.77333" lon="4.33922">
        <ele>581</ele>
        <time>2025-07-23T01:11:52Z</time>
      </trkpt>
      <trkpt lat="45.77327" lon="4.33922">
        <ele>580</ele>
        <time>2025-07-23T01:11:56Z</time>
      </trkpt>
      <trkpt lat="45.77333" lon="4.33922">
        <ele>581</ele>
        <time>2025-07-23T01:12:01Z</time>
      </trkpt>
      <trkpt lat="45.77343" lon="4.33915">
        <ele>582</ele>
        <time>2025-07-23T01:12:10Z</time>
      </trkpt>
      <trkpt lat="45.77367" lon="4.33894">
        <ele>583</ele>
        <time>2025-07-23T01:12:33Z</time>
      </trkpt>
      <trkpt lat="45.77412" lon="4.33858">
        <ele>585</ele>
        <time>2025-07-23T01:13:14Z</time>
      </trkpt>
      <trkpt lat="45.77463" lon="4.33819">
        <ele>593</ele>
        <time>2025-07-23T01:14:00Z</time>
      </trkpt>
      <trkpt lat="45.77496" lon="4.3379">
        <ele>596</ele>
        <time>2025-07-23T01:14:31Z</time>
      </trkpt>
      <trkpt lat="45.77516" lon="4.33769">
        <ele>597</ele>
        <time>2025-07-23T01:14:51Z</time>
      </trkpt>
      <trkpt lat="45.77531" lon="4.33755">
        <ele>597</ele>
        <time>2025-07-23T01:15:05Z</time>
      </trkpt>
      <trkpt lat="45.77543" lon="4.33746">
        <ele>598</ele>
        <time>2025-07-23T01:15:16Z</time>
      </trkpt>
      <trkpt lat="45.77558" lon="4.33738">
        <ele>599</ele>
        <time>2025-07-23T01:15:29Z</time>
      </trkpt>
      <trkpt lat="45.77581" lon="4.33732">
        <ele>602</ele>
        <time>2025-07-23T01:15:48Z</time>
      </trkpt>
      <trkpt lat="45.77597" lon="4.3373">
        <ele>604</ele>
        <time>2025-07-23T01:16:01Z</time>
      </trkpt>
      <trkpt lat="45.77604" lon="4.33728">
        <ele>605</ele>
        <time>2025-07-23T01:16:06Z</time>
      </trkpt>
      <trkpt lat="45.77604" lon="4.33739">
        <ele>606</ele>
        <time>2025-07-23T01:16:12Z</time>
      </trkpt>
      <trkpt lat="45.77601" lon="4.33769">
        <ele>611</ele>
        <time>2025-07-23T01:16:29Z</time>
      </trkpt>
      <trkpt lat="45.77584" lon="4.33808">
        <ele>616</ele>
        <time>2025-07-23T01:16:55Z</time>
      </trkpt>
      <trkpt lat="45.7758" lon="4.33826">
        <ele>619</ele>
        <time>2025-07-23T01:17:06Z</time>
      </trkpt>
      <trkpt lat="45.77591" lon="4.33901">
        <ele>630</ele>
        <time>2025-07-23T01:17:48Z</time>
      </trkpt>
      <trkpt lat="45.77595" lon="4.33915">
        <ele>632</ele>
        <time>2025-07-23T01:17:57Z</time>
      </trkpt>
      <trkpt lat="45.77606" lon="4.33926">
        <ele>633</ele>
        <time>2025-07-23T01:18:08Z</time>
      </trkpt>
      <trkpt lat="45.77679" lon="4.33953">
        <ele>642</ele>
        <time>2025-07-23T01:19:08Z</time>
      </trkpt>
      <trkpt lat="45.77735" lon="4.33985">
        <ele>649</ele>
        <time>2025-07-23T01:19:56Z</time>
      </trkpt>
      <trkpt lat="45.7776" lon="4.33997">
        <ele>652</ele>
        <time>2025-07-23T01:20:17Z</time>
      </trkpt>
      <trkpt lat="45.7779" lon="4.34001">
        <ele>656</ele>
        <time>2025-07-23T01:20:41Z</time>
      </trkpt>
      <trkpt lat="45.77793" lon="4.34">
        <ele>656</ele>
        <time>2025-07-23T01:20:44Z</time>
      </trkpt>
      <trkpt lat="45.77795" lon="4.34004">
        <ele>656</ele>
        <time>2025-07-23T01:20:47Z</time>
      </trkpt>
      <trkpt lat="45.77799" lon="4.34013">
        <ele>656</ele>
        <time>2025-07-23T01:20:53Z</time>
      </trkpt>
      <trkpt lat="45.77829" lon="4.34055">
        <ele>657</ele>
        <time>2025-07-23T01:21:26Z</time>
      </trkpt>
      <trkpt lat="45.77843" lon="4.34067">
        <ele>656</ele>
        <time>2025-07-23T01:21:39Z</time>
      </trkpt>
      <trkpt lat="45.77879" lon="4.34072">
        <ele>657</ele>
        <time>2025-07-23T01:22:08Z</time>
      </trkpt>
      <trkpt lat="45.77889" lon="4.34075">
        <ele>657</ele>
        <time>2025-07-23T01:22:16Z</time>
      </trkpt>
      <trkpt lat="45.77915" lon="4.34093">
        <ele>655</ele>
        <time>2025-07-23T01:22:39Z</time>
      </trkpt>
      <trkpt lat="45.77929" lon="4.34099">
        <ele>653</ele>
        <time>2025-07-23T01:22:51Z</time>
      </trkpt>
      <trkpt lat="45.7799" lon="4.34099">
        <ele>644</ele>
        <time>2025-07-23T01:23:40Z</time>
      </trkpt>
      <trkpt lat="45.7802" lon="4.34082">
        <ele>643</ele>
        <time>2025-07-23T01:24:06Z</time>
      </trkpt>
      <trkpt lat="45.78045" lon="4.3407">
        <ele>644</ele>
        <time>2025-07-23T01:24:27Z</time>
      </trkpt>
      <trkpt lat="45.78071" lon="4.34059">
        <ele>644</ele>
        <time>2025-07-23T01:24:49Z</time>
      </trkpt>
      <trkpt lat="45.78088" lon="4.34057">
        <ele>643</ele>
        <time>2025-07-23T01:25:02Z</time>
      </trkpt>
      <trkpt lat="45.78106" lon="4.34049">
        <ele>642</ele>
        <time>2025-07-23T01:25:17Z</time>
      </trkpt>
      <trkpt lat="45.78123" lon="4.34036">
        <ele>642</ele>
        <time>2025-07-23T01:25:33Z</time>
      </trkpt>
      <trkpt lat="45.78172" lon="4.33983">
        <ele>641</ele>
        <time>2025-07-23T01:26:22Z</time>
      </trkpt>
      <trkpt lat="45.78177" lon="4.33984">
        <ele>640</ele>
        <time>2025-07-23T01:26:26Z</time>
      </trkpt>
      <trkpt lat="45.78211" lon="4.34011">
        <ele>632</ele>
        <time>2025-07-23T01:26:57Z</time>
      </trkpt>
      <trkpt lat="45.78212" lon="4.34011">
        <ele>632</ele>
        <time>2025-07-23T01:26:58Z</time>
      </trkpt>
      <trkpt lat="45.78212" lon="4.34053">
        <ele>628</ele>
        <time>2025-07-23T01:27:21Z</time>
      </trkpt>
      <trkpt lat="45.78207" lon="4.34083">
        <ele>626</ele>
        <time>2025-07-23T01:27:39Z</time>
      </trkpt>
      <trkpt lat="45.78205" lon="4.34112">
        <ele>624</ele>
        <time>2025-07-23T01:27:55Z</time>
      </trkpt>
      <trkpt lat="45.78197" lon="4.34159">
        <ele>620</ele>
        <time>2025-07-23T01:28:22Z</time>
      </trkpt>
      <trkpt lat="45.78197" lon="4.34162">
        <ele>619</ele>
        <time>2025-07-23T01:28:24Z</time>
      </trkpt>
      <trkpt lat="45.78194" lon="4.34175">
        <ele>619</ele>
        <time>2025-07-23T01:28:31Z</time>
      </trkpt>
      <trkpt lat="45.78191" lon="4.34216">
        <ele>617</ele>
        <time>2025-07-23T01:28:54Z</time>
      </trkpt>
      <trkpt lat="45.78191" lon="4.34255">
        <ele>616</ele>
        <time>2025-07-23T01:29:16Z</time>
      </trkpt>
      <trkpt lat="45.78195" lon="4.34288">
        <ele>617</ele>
        <time>2025-07-23T01:29:35Z</time>
      </trkpt>
      <trkpt lat="45.782" lon="4.34304">
        <ele>618</ele>
        <time>2025-07-23T01:29:45Z</time>
      </trkpt>
      <trkpt lat="45.78206" lon="4.34318">
        <ele>618</ele>
        <time>2025-07-23T01:29:54Z</time>
      </trkpt>
      <trkpt lat="45.78211" lon="4.34331">
        <ele>619</ele>
        <time>2025-07-23T01:30:02Z</time>
      </trkpt>
      <trkpt lat="45.78216" lon="4.34355">
        <ele>620</ele>
        <time>2025-07-23T01:30:16Z</time>
      </trkpt>
      <trkpt lat="45.78227" lon="4.34408">
        <ele>624</ele>
        <time>2025-07-23T01:30:47Z</time>
      </trkpt>
      <trkpt lat="45.78234" lon="4.34423">
        <ele>626</ele>
        <time>2025-07-23T01:30:57Z</time>
      </trkpt>
      <trkpt lat="45.7825" lon="4.34455">
        <ele>631</ele>
        <time>2025-07-23T01:31:19Z</time>
      </trkpt>
      <trkpt lat="45.78284" lon="4.345">
        <ele>634</ele>
        <time>2025-07-23T01:31:56Z</time>
      </trkpt>
      <trkpt lat="45.78302" lon="4.34529">
        <ele>633</ele>
        <time>2025-07-23T01:32:18Z</time>
      </trkpt>
      <trkpt lat="45.78335" lon="4.3459">
        <ele>630</ele>
        <time>2025-07-23T01:33:01Z</time>
      </trkpt>
      <trkpt lat="45.78347" lon="4.34621">
        <ele>629</ele>
        <time>2025-07-23T01:33:21Z</time>
      </trkpt>
      <trkpt lat="45.78351" lon="4.34638">
        <ele>628</ele>
        <time>2025-07-23T01:33:31Z</time>
      </trkpt>
      <trkpt lat="45.78357" lon="4.3468">
        <ele>628</ele>
        <time>2025-07-23T01:33:54Z</time>
      </trkpt>
      <trkpt lat="45.78358" lon="4.34701">
        <ele>627</ele>
        <time>2025-07-23T01:34:06Z</time>
      </trkpt>
      <trkpt lat="45.78365" lon="4.34732">
        <ele>626</ele>
        <time>2025-07-23T01:34:24Z</time>
      </trkpt>
      <trkpt lat="45.78378" lon="4.34756">
        <ele>625</ele>
        <time>2025-07-23T01:34:41Z</time>
      </trkpt>
      <trkpt lat="45.78399" lon="4.34784">
        <ele>624</ele>
        <time>2025-07-23T01:35:04Z</time>
      </trkpt>
      <trkpt lat="45.78426" lon="4.34822">
        <ele>623</ele>
        <time>2025-07-23T01:35:35Z</time>
      </trkpt>
      <trkpt lat="45.78453" lon="4.3486">
        <ele>621</ele>
        <time>2025-07-23T01:36:05Z</time>
      </trkpt>
      <trkpt lat="45.78466" lon="4.34887">
        <ele>621</ele>
        <time>2025-07-23T01:36:23Z</time>
      </trkpt>
      <trkpt lat="45.78478" lon="4.34908">
        <ele>621</ele>
        <time>2025-07-23T01:36:38Z</time>
      </trkpt>
      <trkpt lat="45.78503" lon="4.34936">
        <ele>622</ele>
        <time>2025-07-23T01:37:04Z</time>
      </trkpt>
      <trkpt lat="45.78546" lon="4.34974">
        <ele>622</ele>
        <time>2025-07-23T01:37:44Z</time>
      </trkpt>
      <trkpt lat="45.78559" lon="4.34984">
        <ele>622</ele>
        <time>2025-07-23T01:37:56Z</time>
      </trkpt>
      <trkpt lat="45.78571" lon="4.34984">
        <ele>623</ele>
        <time>2025-07-23T01:38:06Z</time>
      </trkpt>
      <trkpt lat="45.78695" lon="4.35047">
        <ele>627</ele>
        <time>2025-07-23T01:39:51Z</time>
      </trkpt>
      <trkpt lat="45.78747" lon="4.35074">
        <ele>628</ele>
        <time>2025-07-23T01:40:35Z</time>
      </trkpt>
      <trkpt lat="45.78762" lon="4.35084">
        <ele>628</ele>
        <time>2025-07-23T01:40:49Z</time>
      </trkpt>
      <trkpt lat="45.78817" lon="4.35119">
        <ele>628</ele>
        <time>2025-07-23T01:41:37Z</time>
      </trkpt>
      <trkpt lat="45.78839" lon="4.35134">
        <ele>629</ele>
        <time>2025-07-23T01:41:56Z</time>
      </trkpt>
      <trkpt lat="45.78865" lon="4.3515">
        <ele>631</ele>
        <time>2025-07-23T01:42:19Z</time>
      </trkpt>
      <trkpt lat="45.78903" lon="4.35173">
        <ele>632</ele>
        <time>2025-07-23T01:42:52Z</time>
      </trkpt>
      <trkpt lat="45.7895" lon="4.352">
        <ele>634</ele>
        <time>2025-07-23T01:43:32Z</time>
      </trkpt>
      <trkpt lat="45.78967" lon="4.35208">
        <ele>635</ele>
        <time>2025-07-23T01:43:47Z</time>
      </trkpt>
      <trkpt lat="45.78973" lon="4.3521">
        <ele>636</ele>
        <time>2025-07-23T01:43:52Z</time>
      </trkpt>
      <trkpt lat="45.79041" lon="4.35231">
        <ele>640</ele>
        <time>2025-07-23T01:44:47Z</time>
      </trkpt>
      <trkpt lat="45.79049" lon="4.35236">
        <ele>640</ele>
        <time>2025-07-23T01:44:54Z</time>
      </trkpt>
      <trkpt lat="45.79052" lon="4.35238">
        <ele>641</ele>
        <time>2025-07-23T01:44:57Z</time>
      </trkpt>
      <trkpt lat="45.79056" lon="4.35242">
        <ele>641</ele>
        <time>2025-07-23T01:45:01Z</time>
      </trkpt>
      <trkpt lat="45.79065" lon="4.35251">
        <ele>641</ele>
        <time>2025-07-23T01:45:10Z</time>
      </trkpt>
      <trkpt lat="45.79094" lon="4.35271">
        <ele>642</ele>
        <time>2025-07-23T01:45:35Z</time>
      </trkpt>
      <trkpt lat="45.79135" lon="4.35305">
        <ele>638</ele>
        <time>2025-07-23T01:46:13Z</time>
      </trkpt>
      <trkpt lat="45.79143" lon="4.35313">
        <ele>638</ele>
        <time>2025-07-23T01:46:21Z</time>
      </trkpt>
      <trkpt lat="45.79147" lon="4.35315">
        <ele>637</ele>
        <time>2025-07-23T01:46:25Z</time>
      </trkpt>
      <trkpt lat="45.79166" lon="4.35316">
        <ele>636</ele>
        <time>2025-07-23T01:46:40Z</time>
      </trkpt>
      <trkpt lat="45.79179" lon="4.35342">
        <ele>635</ele>
        <time>2025-07-23T01:46:58Z</time>
      </trkpt>
      <trkpt lat="45.79193" lon="4.35362">
        <ele>635</ele>
        <time>2025-07-23T01:47:14Z</time>
      </trkpt>
      <trkpt lat="45.792" lon="4.35367">
        <ele>635</ele>
        <time>2025-07-23T01:47:20Z</time>
      </trkpt>
      <trkpt lat="45.79209" lon="4.35375">
        <ele>635</ele>
        <time>2025-07-23T01:47:28Z</time>
      </trkpt>
      <trkpt lat="45.79215" lon="4.35381">
        <ele>635</ele>
        <time>2025-07-23T01:47:34Z</time>
      </trkpt>
      <trkpt lat="45.79232" lon="4.35398">
        <ele>635</ele>
        <time>2025-07-23T01:47:51Z</time>
      </trkpt>
      <trkpt lat="45.79239" lon="4.35406">
        <ele>635</ele>
        <time>2025-07-23T01:47:58Z</time>
      </trkpt>
      <trkpt lat="45.7925" lon="4.35417">
        <ele>636</ele>
        <time>2025-07-23T01:48:09Z</time>
      </trkpt>
      <trkpt lat="45.79239" lon="4.35406">
        <ele>635</ele>
        <time>2025-07-23T01:48:19Z</time>
      </trkpt>
      <trkpt lat="45.79251" lon="4.35406">
        <ele>635</ele>
        <time>2025-07-23T01:48:29Z</time>
      </trkpt>
      <trkpt lat="45.79254" lon="4.35405">
        <ele>635</ele>
        <time>2025-07-23T01:48:31Z</time>
      </trkpt>
      <trkpt lat="45.79277" lon="4.35412">
        <ele>635</ele>
        <time>2025-07-23T01:48:50Z</time>
      </trkpt>
      <trkpt lat="45.79305" lon="4.35422">
        <ele>635</ele>
        <time>2025-07-23T01:49:13Z</time>
      </trkpt>
      <trkpt lat="45.79313" lon="4.35425">
        <ele>634</ele>
        <time>2025-07-23T01:49:20Z</time>
      </trkpt>
      <trkpt lat="45.79317" lon="4.35427">
        <ele>634</ele>
        <time>2025-07-23T01:49:23Z</time>
      </trkpt>
      <trkpt lat="45.79347" lon="4.35438">
        <ele>635</ele>
        <time>2025-07-23T01:49:48Z</time>
      </trkpt>
      <trkpt lat="45.7937" lon="4.35445">
        <ele>636</ele>
        <time>2025-07-23T01:50:07Z</time>
      </trkpt>
      <trkpt lat="45.79376" lon="4.35447">
        <ele>636</ele>
        <time>2025-07-23T01:50:12Z</time>
      </trkpt>
      <trkpt lat="45.79399" lon="4.35455">
        <ele>637</ele>
        <time>2025-07-23T01:50:31Z</time>
      </trkpt>
      <trkpt lat="45.7943" lon="4.35466">
        <ele>640</ele>
        <time>2025-07-23T01:50:56Z</time>
      </trkpt>
      <trkpt lat="45.79443" lon="4.35471">
        <ele>641</ele>
        <time>2025-07-23T01:51:07Z</time>
      </trkpt>
      <trkpt lat="45.79483" lon="4.35489">
        <ele>644</ele>
        <time>2025-07-23T01:51:41Z</time>
      </trkpt>
      <trkpt lat="45.79503" lon="4.35498">
        <ele>645</ele>
        <time>2025-07-23T01:51:58Z</time>
      </trkpt>
      <trkpt lat="45.79523" lon="4.35506">
        <ele>643</ele>
        <time>2025-07-23T01:52:14Z</time>
      </trkpt>
      <trkpt lat="45.7955" lon="4.35519">
        <ele>641</ele>
        <time>2025-07-23T01:52:37Z</time>
      </trkpt>
      <trkpt lat="45.79567" lon="4.35529">
        <ele>639</ele>
        <time>2025-07-23T01:52:52Z</time>
      </trkpt>
      <trkpt lat="45.79581" lon="4.35545">
        <ele>638</ele>
        <time>2025-07-23T01:53:06Z</time>
      </trkpt>
      <trkpt lat="45.79596" lon="4.35568">
        <ele>634</ele>
        <time>2025-07-23T01:53:24Z</time>
      </trkpt>
      <trkpt lat="45.79607" lon="4.35597">
        <ele>632</ele>
        <time>2025-07-23T01:53:42Z</time>
      </trkpt>
      <trkpt lat="45.79616" lon="4.35633">
        <ele>630</ele>
        <time>2025-07-23T01:54:03Z</time>
      </trkpt>
      <trkpt lat="45.79619" lon="4.35662">
        <ele>630</ele>
        <time>2025-07-23T01:54:20Z</time>
      </trkpt>
      <trkpt lat="45.79621" lon="4.35698">
        <ele>629</ele>
        <time>2025-07-23T01:54:40Z</time>
      </trkpt>
      <trkpt lat="45.79623" lon="4.35719">
        <ele>629</ele>
        <time>2025-07-23T01:54:52Z</time>
      </trkpt>
      <trkpt lat="45.79628" lon="4.35733">
        <ele>629</ele>
        <time>2025-07-23T01:55:01Z</time>
      </trkpt>
      <trkpt lat="45.79634" lon="4.35745">
        <ele>628</ele>
        <time>2025-07-23T01:55:09Z</time>
      </trkpt>
      <trkpt lat="45.79641" lon="4.35753">
        <ele>627</ele>
        <time>2025-07-23T01:55:16Z</time>
      </trkpt>
      <trkpt lat="45.79646" lon="4.35754">
        <ele>627</ele>
        <time>2025-07-23T01:55:20Z</time>
      </trkpt>
      <trkpt lat="45.79652" lon="4.35755">
        <ele>626</ele>
        <time>2025-07-23T01:55:25Z</time>
      </trkpt>
      <trkpt lat="45.79664" lon="4.35756">
        <ele>625</ele>
        <time>2025-07-23T01:55:34Z</time>
      </trkpt>
      <trkpt lat="45.79681" lon="4.35754">
        <ele>625</ele>
        <time>2025-07-23T01:55:48Z</time>
      </trkpt>
      <trkpt lat="45.79699" lon="4.35754">
        <ele>625</ele>
        <time>2025-07-23T01:56:03Z</time>
      </trkpt>
      <trkpt lat="45.7972" lon="4.35759">
        <ele>626</ele>
        <time>2025-07-23T01:56:20Z</time>
      </trkpt>
      <trkpt lat="45.79724" lon="4.35761">
        <ele>626</ele>
        <time>2025-07-23T01:56:23Z</time>
      </trkpt>
      <trkpt lat="45.79728" lon="4.35764">
        <ele>626</ele>
        <time>2025-07-23T01:56:27Z</time>
      </trkpt>
      <trkpt lat="45.79738" lon="4.35772">
        <ele>626</ele>
        <time>2025-07-23T01:56:36Z</time>
      </trkpt>
      <trkpt lat="45.7976" lon="4.35793">
        <ele>627</ele>
        <time>2025-07-23T01:56:57Z</time>
      </trkpt>
      <trkpt lat="45.79786" lon="4.35821">
        <ele>630</ele>
        <time>2025-07-23T01:57:23Z</time>
      </trkpt>
      <trkpt lat="45.79799" lon="4.35838">
        <ele>631</ele>
        <time>2025-07-23T01:57:37Z</time>
      </trkpt>
      <trkpt lat="45.79819" lon="4.35872">
        <ele>633</ele>
        <time>2025-07-23T01:58:02Z</time>
      </trkpt>
      <trkpt lat="45.79825" lon="4.35881">
        <ele>633</ele>
        <time>2025-07-23T01:58:09Z</time>
      </trkpt>
      <trkpt lat="45.79843" lon="4.35911">
        <ele>635</ele>
        <time>2025-07-23T01:58:31Z</time>
      </trkpt>
      <trkpt lat="45.79869" lon="4.35948">
        <ele>638</ele>
        <time>2025-07-23T01:59:00Z</time>
      </trkpt>
      <trkpt lat="45.79917" lon="4.3601">
        <ele>644</ele>
        <time>2025-07-23T01:59:52Z</time>
      </trkpt>
      <trkpt lat="45.79944" lon="4.36033">
        <ele>645</ele>
        <time>2025-07-23T02:00:17Z</time>
      </trkpt>
      <trkpt lat="45.79961" lon="4.36043">
        <ele>646</ele>
        <time>2025-07-23T02:00:32Z</time>
      </trkpt>
      <trkpt lat="45.79976" lon="4.36046">
        <ele>646</ele>
        <time>2025-07-23T02:00:44Z</time>
      </trkpt>
      <trkpt lat="45.8002" lon="4.3606">
        <ele>648</ele>
        <time>2025-07-23T02:01:20Z</time>
      </trkpt>
      <trkpt lat="45.80037" lon="4.36062">
        <ele>648</ele>
        <time>2025-07-23T02:01:34Z</time>
      </trkpt>
      <trkpt lat="45.8008" lon="4.3607">
        <ele>649</ele>
        <time>2025-07-23T02:02:08Z</time>
      </trkpt>
      <trkpt lat="45.80119" lon="4.36076">
        <ele>650</ele>
        <time>2025-07-23T02:02:40Z</time>
      </trkpt>
      <trkpt lat="45.80144" lon="4.36074">
        <ele>651</ele>
        <time>2025-07-23T02:03:00Z</time>
      </trkpt>
      <trkpt lat="45.80161" lon="4.36069">
        <ele>652</ele>
        <time>2025-07-23T02:03:14Z</time>
      </trkpt>
      <trkpt lat="45.80182" lon="4.36057">
        <ele>653</ele>
        <time>2025-07-23T02:03:32Z</time>
      </trkpt>
      <trkpt lat="45.80192" lon="4.36054">
        <ele>654</ele>
        <time>2025-07-23T02:03:40Z</time>
      </trkpt>
      <trkpt lat="45.80231" lon="4.36056">
        <ele>657</ele>
        <time>2025-07-23T02:04:11Z</time>
      </trkpt>
      <trkpt lat="45.80259" lon="4.36055">
        <ele>659</ele>
        <time>2025-07-23T02:04:34Z</time>
      </trkpt>
      <trkpt lat="45.80273" lon="4.36052">
        <ele>661</ele>
        <time>2025-07-23T02:04:45Z</time>
      </trkpt>
      <trkpt lat="45.8029" lon="4.3605">
        <ele>663</ele>
        <time>2025-07-23T02:04:59Z</time>
      </trkpt>
      <trkpt lat="45.80298" lon="4.36047">
        <ele>664</ele>
        <time>2025-07-23T02:05:05Z</time>
      </trkpt>
      <trkpt lat="45.80315" lon="4.36041">
        <ele>666</ele>
        <time>2025-07-23T02:05:19Z</time>
      </trkpt>
      <trkpt lat="45.80314" lon="4.36039">
        <ele>666</ele>
        <time>2025-07-23T02:05:21Z</time>
      </trkpt>
      <trkpt lat="45.80314" lon="4.36036">
        <ele>665</ele>
        <time>2025-07-23T02:05:22Z</time>
      </trkpt>
      <trkpt lat="45.80342" lon="4.36006">
        <ele>668</ele>
        <time>2025-07-23T02:05:50Z</time>
      </trkpt>
      <trkpt lat="45.80351" lon="4.36002">
        <ele>670</ele>
        <time>2025-07-23T02:05:58Z</time>
      </trkpt>
      <trkpt lat="45.80361" lon="4.36005">
        <ele>672</ele>
        <time>2025-07-23T02:06:06Z</time>
      </trkpt>
      <trkpt lat="45.80377" lon="4.36018">
        <ele>676</ele>
        <time>2025-07-23T02:06:21Z</time>
      </trkpt>
      <trkpt lat="45.80392" lon="4.36028">
        <ele>680</ele>
        <time>2025-07-23T02:06:34Z</time>
      </trkpt>
      <trkpt lat="45.80415" lon="4.3607">
        <ele>686</ele>
        <time>2025-07-23T02:07:04Z</time>
      </trkpt>
      <trkpt lat="45.80426" lon="4.36084">
        <ele>689</ele>
        <time>2025-07-23T02:07:16Z</time>
      </trkpt>
      <trkpt lat="45.80438" lon="4.36094">
        <ele>692</ele>
        <time>2025-07-23T02:07:27Z</time>
      </trkpt>
      <trkpt lat="45.80466" lon="4.36132">
        <ele>698</ele>
        <time>2025-07-23T02:07:58Z</time>
      </trkpt>
      <trkpt lat="45.80475" lon="4.36141">
        <ele>700</ele>
        <time>2025-07-23T02:08:06Z</time>
      </trkpt>
      <trkpt lat="45.80498" lon="4.36159">
        <ele>706</ele>
        <time>2025-07-23T02:08:27Z</time>
      </trkpt>
      <trkpt lat="45.80538" lon="4.36206">
        <ele>715</ele>
        <time>2025-07-23T02:09:09Z</time>
      </trkpt>
      <trkpt lat="45.80563" lon="4.36239">
        <ele>720</ele>
        <time>2025-07-23T02:09:36Z</time>
      </trkpt>
      <trkpt lat="45.80575" lon="4.3625">
        <ele>722</ele>
        <time>2025-07-23T02:09:47Z</time>
      </trkpt>
      <trkpt lat="45.80637" lon="4.36304">
        <ele>725</ele>
        <time>2025-07-23T02:10:45Z</time>
      </trkpt>
      <trkpt lat="45.8065" lon="4.36297">
        <ele>726</ele>
        <time>2025-07-23T02:10:57Z</time>
      </trkpt>
      <trkpt lat="45.80662" lon="4.36325">
        <ele>727</ele>
        <time>2025-07-23T02:11:15Z</time>
      </trkpt>
      <trkpt lat="45.80699" lon="4.36409">
        <ele>727</ele>
        <time>2025-07-23T02:12:10Z</time>
      </trkpt>
      <trkpt lat="45.80728" lon="4.36493">
        <ele>734</ele>
        <time>2025-07-23T02:13:03Z</time>
      </trkpt>
      <trkpt lat="45.80738" lon="4.36518">
        <ele>736</ele>
        <time>2025-07-23T02:13:19Z</time>
      </trkpt>
      <trkpt lat="45.8074" lon="4.36535">
        <ele>737</ele>
        <time>2025-07-23T02:13:28Z</time>
      </trkpt>
      <trkpt lat="45.80747" lon="4.36564">
        <ele>739</ele>
        <time>2025-07-23T02:13:46Z</time>
      </trkpt>
      <trkpt lat="45.80748" lon="4.36586">
        <ele>740</ele>
        <time>2025-07-23T02:13:58Z</time>
      </trkpt>
      <trkpt lat="45.80746" lon="4.3661">
        <ele>740</ele>
        <time>2025-07-23T02:14:11Z</time>
      </trkpt>
      <trkpt lat="45.80747" lon="4.3663">
        <ele>742</ele>
        <time>2025-07-23T02:14:22Z</time>
      </trkpt>
      <trkpt lat="45.80751" lon="4.36695">
        <ele>747</ele>
        <time>2025-07-23T02:14:59Z</time>
      </trkpt>
      <trkpt lat="45.80754" lon="4.36715">
        <ele>749</ele>
        <time>2025-07-23T02:15:10Z</time>
      </trkpt>
      <trkpt lat="45.80772" lon="4.3678">
        <ele>755</ele>
        <time>2025-07-23T02:15:49Z</time>
      </trkpt>
      <trkpt lat="45.8079" lon="4.36832">
        <ele>758</ele>
        <time>2025-07-23T02:16:22Z</time>
      </trkpt>
      <trkpt lat="45.80921" lon="4.36949">
        <ele>767</ele>
        <time>2025-07-23T02:18:25Z</time>
      </trkpt>
      <trkpt lat="45.80969" lon="4.36989">
        <ele>771</ele>
        <time>2025-07-23T02:19:10Z</time>
      </trkpt>
      <trkpt lat="45.81014" lon="4.37024">
        <ele>776</ele>
        <time>2025-07-23T02:19:51Z</time>
      </trkpt>
      <trkpt lat="45.81045" lon="4.3705">
        <ele>778</ele>
        <time>2025-07-23T02:20:20Z</time>
      </trkpt>
      <trkpt lat="45.81091" lon="4.37067">
        <ele>782</ele>
        <time>2025-07-23T02:20:58Z</time>
      </trkpt>
      <trkpt lat="45.81117" lon="4.37081">
        <ele>784</ele>
        <time>2025-07-23T02:21:20Z</time>
      </trkpt>
      <trkpt lat="45.81209" lon="4.37114">
        <ele>790</ele>
        <time>2025-07-23T02:22:36Z</time>
      </trkpt>
      <trkpt lat="45.81269" lon="4.37138">
        <ele>795</ele>
        <time>2025-07-23T02:23:26Z</time>
      </trkpt>
      <trkpt lat="45.81333" lon="4.3717">
        <ele>802</ele>
        <time>2025-07-23T02:24:20Z</time>
      </trkpt>
      <trkpt lat="45.81346" lon="4.37173">
        <ele>803</ele>
        <time>2025-07-23T02:24:30Z</time>
      </trkpt>
      <trkpt lat="45.8135" lon="4.37174">
        <ele>803</ele>
        <time>2025-07-23T02:24:34Z</time>
      </trkpt>
      <trkpt lat="45.81354" lon="4.37175">
        <ele>803</ele>
        <time>2025-07-23T02:24:37Z</time>
      </trkpt>
      <trkpt lat="45.8142" lon="4.37107">
        <ele>808</ele>
        <time>2025-07-23T02:25:42Z</time>
      </trkpt>
      <trkpt lat="45.81442" lon="4.37089">
        <ele>810</ele>
        <time>2025-07-23T02:26:02Z</time>
      </trkpt>
      <trkpt lat="45.81445" lon="4.37084">
        <ele>810</ele>
        <time>2025-07-23T02:26:06Z</time>
      </trkpt>
      <trkpt lat="45.81453" lon="4.37069">
        <ele>809</ele>
        <time>2025-07-23T02:26:16Z</time>
      </trkpt>
      <trkpt lat="45.81479" lon="4.36994">
        <ele>808</ele>
        <time>2025-07-23T02:27:03Z</time>
      </trkpt>
      <trkpt lat="45.81495" lon="4.36965">
        <ele>807</ele>
        <time>2025-07-23T02:27:24Z</time>
      </trkpt>
      <trkpt lat="45.815" lon="4.3695">
        <ele>806</ele>
        <time>2025-07-23T02:27:33Z</time>
      </trkpt>
      <trkpt lat="45.81503" lon="4.36917">
        <ele>803</ele>
        <time>2025-07-23T02:27:52Z</time>
      </trkpt>
      <trkpt lat="45.81516" lon="4.36905">
        <ele>802</ele>
        <time>2025-07-23T02:28:04Z</time>
      </trkpt>
      <trkpt lat="45.81526" lon="4.36893">
        <ele>801</ele>
        <time>2025-07-23T02:28:15Z</time>
      </trkpt>
      <trkpt lat="45.81526" lon="4.36872">
        <ele>800</ele>
        <time>2025-07-23T02:28:26Z</time>
      </trkpt>
      <trkpt lat="45.81525" lon="4.36844">
        <ele>798</ele>
        <time>2025-07-23T02:28:42Z</time>
      </trkpt>
      <trkpt lat="45.81512" lon="4.36773">
        <ele>795</ele>
        <time>2025-07-23T02:29:23Z</time>
      </trkpt>
      <trkpt lat="45.81512" lon="4.36745">
        <ele>794</ele>
        <time>2025-07-23T02:29:38Z</time>
      </trkpt>
      <trkpt lat="45.81519" lon="4.36696">
        <ele>790</ele>
        <time>2025-07-23T02:30:06Z</time>
      </trkpt>
      <trkpt lat="45.81518" lon="4.36677">
        <ele>789</ele>
        <time>2025-07-23T02:30:17Z</time>
      </trkpt>
      <trkpt lat="45.81513" lon="4.36644">
        <ele>788</ele>
        <time>2025-07-23T02:30:36Z</time>
      </trkpt>
      <trkpt lat="45.81514" lon="4.36635">
        <ele>788</ele>
        <time>2025-07-23T02:30:41Z</time>
      </trkpt>
      <trkpt lat="45.81537" lon="4.36607">
        <ele>789</ele>
        <time>2025-07-23T02:31:05Z</time>
      </trkpt>
      <trkpt lat="45.81601" lon="4.3651">
        <ele>796</ele>
        <time>2025-07-23T02:32:20Z</time>
      </trkpt>
      <trkpt lat="45.81616" lon="4.36477">
        <ele>795</ele>
        <time>2025-07-23T02:32:42Z</time>
      </trkpt>
      <trkpt lat="45.81611" lon="4.36469">
        <ele>796</ele>
        <time>2025-07-23T02:32:48Z</time>
      </trkpt>
      <trkpt lat="45.81592" lon="4.36435">
        <ele>798</ele>
        <time>2025-07-23T02:33:12Z</time>
      </trkpt>
      <trkpt lat="45.8158" lon="4.36387">
        <ele>795</ele>
        <time>2025-07-23T02:33:40Z</time>
      </trkpt>
      <trkpt lat="45.81581" lon="4.3635">
        <ele>789</ele>
        <time>2025-07-23T02:34:01Z</time>
      </trkpt>
      <trkpt lat="45.8158" lon="4.36326">
        <ele>786</ele>
        <time>2025-07-23T02:34:14Z</time>
      </trkpt>
      <trkpt lat="45.81577" lon="4.36322">
        <ele>785</ele>
        <time>2025-07-23T02:34:18Z</time>
      </trkpt>
      <trkpt lat="45.81548" lon="4.36277">
        <ele>779</ele>
        <time>2025-07-23T02:34:52Z</time>
      </trkpt>
      <trkpt lat="45.815" lon="4.36213">
        <ele>774</ele>
        <time>2025-07-23T02:35:44Z</time>
      </trkpt>
      <trkpt lat="45.81485" lon="4.3618">
        <ele>772</ele>
        <time>2025-07-23T02:36:06Z</time>
      </trkpt>
      <trkpt lat="45.81467" lon="4.36151">
        <ele>771</ele>
        <time>2025-07-23T02:36:28Z</time>
      </trkpt>
      <trkpt lat="45.81468" lon="4.36129">
        <ele>771</ele>
        <time>2025-07-23T02:36:40Z</time>
      </trkpt>
      <trkpt lat="45.81469" lon="4.36104">
        <ele>770</ele>
        <time>2025-07-23T02:36:54Z</time>
      </trkpt>
      <trkpt lat="45.81484" lon="4.3605">
        <ele>766</ele>
        <time>2025-07-23T02:37:27Z</time>
      </trkpt>
      <trkpt lat="45.81503" lon="4.3601">
        <ele>763</ele>
        <time>2025-07-23T02:37:54Z</time>
      </trkpt>
      <trkpt lat="45.81505" lon="4.36012">
        <ele>763</ele>
        <time>2025-07-23T02:37:56Z</time>
      </trkpt>
      <trkpt lat="45.81503" lon="4.3601">
        <ele>763</ele>
        <time>2025-07-23T02:37:58Z</time>
      </trkpt>
      <trkpt lat="45.81489" lon="4.35998">
        <ele>762</ele>
        <time>2025-07-23T02:38:11Z</time>
      </trkpt>
      <trkpt lat="45.81441" lon="4.35948">
        <ele>754</ele>
        <time>2025-07-23T02:38:58Z</time>
      </trkpt>
      <trkpt lat="45.81426" lon="4.35941">
        <ele>752</ele>
        <time>2025-07-23T02:39:11Z</time>
      </trkpt>
      <trkpt lat="45.81396" lon="4.35946">
        <ele>748</ele>
        <time>2025-07-23T02:39:35Z</time>
      </trkpt>
      <trkpt lat="45.81366" lon="4.3593">
        <ele>741</ele>
        <time>2025-07-23T02:40:01Z</time>
      </trkpt>
      <trkpt lat="45.81352" lon="4.35931">
        <ele>738</ele>
        <time>2025-07-23T02:40:12Z</time>
      </trkpt>
      <trkpt lat="45.81336" lon="4.35931">
        <ele>735</ele>
        <time>2025-07-23T02:40:25Z</time>
      </trkpt>
      <trkpt lat="45.81322" lon="4.35935">
        <ele>734</ele>
        <time>2025-07-23T02:40:36Z</time>
      </trkpt>
      <trkpt lat="45.81311" lon="4.3593">
        <ele>732</ele>
        <time>2025-07-23T02:40:45Z</time>
      </trkpt>
      <trkpt lat="45.81285" lon="4.35927">
        <ele>728</ele>
        <time>2025-07-23T02:41:06Z</time>
      </trkpt>
      <trkpt lat="45.81241" lon="4.3593">
        <ele>724</ele>
        <time>2025-07-23T02:41:42Z</time>
      </trkpt>
      <trkpt lat="45.81232" lon="4.35942">
        <ele>726</ele>
        <time>2025-07-23T02:41:51Z</time>
      </trkpt>
      <trkpt lat="45.81218" lon="4.35942">
        <ele>727</ele>
        <time>2025-07-23T02:42:03Z</time>
      </trkpt>
      <trkpt lat="45.81211" lon="4.35929">
        <ele>726</ele>
        <time>2025-07-23T02:42:12Z</time>
      </trkpt>
      <trkpt lat="45.8119" lon="4.35875">
        <ele>722</ele>
        <time>2025-07-23T02:42:46Z</time>
      </trkpt>
      <trkpt lat="45.81182" lon="4.35795">
        <ele>717</ele>
        <time>2025-07-23T02:43:31Z</time>
      </trkpt>
      <trkpt lat="45.81176" lon="4.35746">
        <ele>716</ele>
        <time>2025-07-23T02:43:59Z</time>
      </trkpt>
      <trkpt lat="45.81178" lon="4.35718">
        <ele>714</ele>
        <time>2025-07-23T02:44:15Z</time>
      </trkpt>
      <trkpt lat="45.81184" lon="4.35693">
        <ele>712</ele>
        <time>2025-07-23T02:44:30Z</time>
      </trkpt>
      <trkpt lat="45.81203" lon="4.35661">
        <ele>710</ele>
        <time>2025-07-23T02:44:53Z</time>
      </trkpt>
      <trkpt lat="45.81206" lon="4.35661">
        <ele>711</ele>
        <time>2025-07-23T02:44:55Z</time>
      </trkpt>
      <trkpt lat="45.81207" lon="4.35661">
        <ele>711</ele>
        <time>2025-07-23T02:44:56Z</time>
      </trkpt>
      <trkpt lat="45.8123" lon="4.35646">
        <ele>711</ele>
        <time>2025-07-23T02:45:16Z</time>
      </trkpt>
      <trkpt lat="45.81277" lon="4.35626">
        <ele>708</ele>
        <time>2025-07-23T02:45:56Z</time>
      </trkpt>
      <trkpt lat="45.81288" lon="4.3562">
        <ele>706</ele>
        <time>2025-07-23T02:46:05Z</time>
      </trkpt>
      <trkpt lat="45.81354" lon="4.35572">
        <ele>697</ele>
        <time>2025-07-23T02:47:04Z</time>
      </trkpt>
      <trkpt lat="45.81388" lon="4.35542">
        <ele>692</ele>
        <time>2025-07-23T02:47:36Z</time>
      </trkpt>
      <trkpt lat="45.81413" lon="4.35513">
        <ele>689</ele>
        <time>2025-07-23T02:48:02Z</time>
      </trkpt>
      <trkpt lat="45.81433" lon="4.35483">
        <ele>685</ele>
        <time>2025-07-23T02:48:25Z</time>
      </trkpt>
      <trkpt lat="45.81445" lon="4.35459">
        <ele>680</ele>
        <time>2025-07-23T02:48:42Z</time>
      </trkpt>
      <trkpt lat="45.81464" lon="4.35412">
        <ele>672</ele>
        <time>2025-07-23T02:49:12Z</time>
      </trkpt>
      <trkpt lat="45.81478" lon="4.35375">
        <ele>664</ele>
        <time>2025-07-23T02:49:36Z</time>
      </trkpt>
      <trkpt lat="45.8148" lon="4.3536">
        <ele>662</ele>
        <time>2025-07-23T02:49:44Z</time>
      </trkpt>
      <trkpt lat="45.81484" lon="4.3529">
        <ele>658</ele>
        <time>2025-07-23T02:50:23Z</time>
      </trkpt>
      <trkpt lat="45.81483" lon="4.35244">
        <ele>659</ele>
        <time>2025-07-23T02:50:49Z</time>
      </trkpt>
      <trkpt lat="45.81486" lon="4.35185">
        <ele>658</ele>
        <time>2025-07-23T02:51:22Z</time>
      </trkpt>
      <trkpt lat="45.81489" lon="4.3515">
        <ele>657</ele>
        <time>2025-07-23T02:51:42Z</time>
      </trkpt>
      <trkpt lat="45.81494" lon="4.35107">
        <ele>656</ele>
        <time>2025-07-23T02:52:06Z</time>
      </trkpt>
      <trkpt lat="45.81495" lon="4.35105">
        <ele>655</ele>
        <time>2025-07-23T02:52:07Z</time>
      </trkpt>
      <trkpt lat="45.81508" lon="4.35041">
        <ele>651</ele>
        <time>2025-07-23T02:52:45Z</time>
      </trkpt>
      <trkpt lat="45.81515" lon="4.34983">
        <ele>648</ele>
        <time>2025-07-23T02:53:17Z</time>
      </trkpt>
      <trkpt lat="45.81522" lon="4.34942">
        <ele>645</ele>
        <time>2025-07-23T02:53:41Z</time>
      </trkpt>
      <trkpt lat="45.81544" lon="4.34861">
        <ele>638</ele>
        <time>2025-07-23T02:54:29Z</time>
      </trkpt>
      <trkpt lat="45.81614" lon="4.34701">
        <ele>625</ele>
        <time>2025-07-23T02:56:15Z</time>
      </trkpt>
      <trkpt lat="45.81634" lon="4.34671">
        <ele>621</ele>
        <time>2025-07-23T02:56:38Z</time>
      </trkpt>
      <trkpt lat="45.81653" lon="4.34648">
        <ele>619</ele>
        <time>2025-07-23T02:56:58Z</time>
      </trkpt>
      <trkpt lat="45.81678" lon="4.34622">
        <ele>618</ele>
        <time>2025-07-23T02:57:23Z</time>
      </trkpt>
      <trkpt lat="45.81694" lon="4.3461">
        <ele>617</ele>
        <time>2025-07-23T02:57:37Z</time>
      </trkpt>
      <trkpt lat="45.81708" lon="4.34605">
        <ele>615</ele>
        <time>2025-07-23T02:57:49Z</time>
      </trkpt>
      <trkpt lat="45.81795" lon="4.34586">
        <ele>603</ele>
        <time>2025-07-23T02:58:59Z</time>
      </trkpt>
      <trkpt lat="45.81826" lon="4.34576">
        <ele>599</ele>
        <time>2025-07-23T02:59:25Z</time>
      </trkpt>
      <trkpt lat="45.81845" lon="4.34564">
        <ele>598</ele>
        <time>2025-07-23T02:59:41Z</time>
      </trkpt>
      <trkpt lat="45.81859" lon="4.34557">
        <ele>596</ele>
        <time>2025-07-23T02:59:53Z</time>
      </trkpt>
      <trkpt lat="45.81871" lon="4.34549">
        <ele>594</ele>
        <time>2025-07-23T03:00:04Z</time>
      </trkpt>
      <trkpt lat="45.81871" lon="4.34548">
        <ele>594</ele>
        <time>2025-07-23T03:00:04Z</time>
      </trkpt>
      <trkpt lat="45.81879" lon="4.34508">
        <ele>596</ele>
        <time>2025-07-23T03:00:27Z</time>
      </trkpt>
      <trkpt lat="45.8189" lon="4.34476">
        <ele>596</ele>
        <time>2025-07-23T03:00:47Z</time>
      </trkpt>
      <trkpt lat="45.81916" lon="4.3442">
        <ele>596</ele>
        <time>2025-07-23T03:01:25Z</time>
      </trkpt>
      <trkpt lat="45.81927" lon="4.34382">
        <ele>596</ele>
        <time>2025-07-23T03:01:48Z</time>
      </trkpt>
      <trkpt lat="45.81928" lon="4.34364">
        <ele>597</ele>
        <time>2025-07-23T03:01:58Z</time>
      </trkpt>
      <trkpt lat="45.81924" lon="4.34353">
        <ele>599</ele>
        <time>2025-07-23T03:02:05Z</time>
      </trkpt>
      <trkpt lat="45.81916" lon="4.3434">
        <ele>603</ele>
        <time>2025-07-23T03:02:15Z</time>
      </trkpt>
      <trkpt lat="45.81914" lon="4.34336">
        <ele>604</ele>
        <time>2025-07-23T03:02:17Z</time>
      </trkpt>
      <trkpt lat="45.81935" lon="4.34281">
        <ele>594</ele>
        <time>2025-07-23T03:02:52Z</time>
      </trkpt>
      <trkpt lat="45.81932" lon="4.34269">
        <ele>594</ele>
        <time>2025-07-23T03:02:59Z</time>
      </trkpt>
      <trkpt lat="45.81925" lon="4.34251">
        <ele>595</ele>
        <time>2025-07-23T03:03:11Z</time>
      </trkpt>
      <trkpt lat="45.81889" lon="4.3419">
        <ele>589</ele>
        <time>2025-07-23T03:03:56Z</time>
      </trkpt>
      <trkpt lat="45.81881" lon="4.3418">
        <ele>588</ele>
        <time>2025-07-23T03:04:04Z</time>
      </trkpt>
      <trkpt lat="45.81829" lon="4.34145">
        <ele>585</ele>
        <time>2025-07-23T03:04:50Z</time>
      </trkpt>
      <trkpt lat="45.81823" lon="4.34136">
        <ele>583</ele>
        <time>2025-07-23T03:04:57Z</time>
      </trkpt>
      <trkpt lat="45.8181" lon="4.34109">
        <ele>577</ele>
        <time>2025-07-23T03:05:15Z</time>
      </trkpt>
      <trkpt lat="45.81781" lon="4.34075">
        <ele>572</ele>
        <time>2025-07-23T03:05:45Z</time>
      </trkpt>
      <trkpt lat="45.81772" lon="4.34065">
        <ele>572</ele>
        <time>2025-07-23T03:05:54Z</time>
      </trkpt>
      <trkpt lat="45.81758" lon="4.34052">
        <ele>571</ele>
        <time>2025-07-23T03:06:08Z</time>
      </trkpt>
      <trkpt lat="45.81724" lon="4.34028">
        <ele>567</ele>
        <time>2025-07-23T03:06:38Z</time>
      </trkpt>
      <trkpt lat="45.81686" lon="4.33988">
        <ele>561</ele>
        <time>2025-07-23T03:07:16Z</time>
      </trkpt>
      <trkpt lat="45.81683" lon="4.3398">
        <ele>561</ele>
        <time>2025-07-23T03:07:21Z</time>
      </trkpt>
      <trkpt lat="45.81685" lon="4.33978">
        <ele>560</ele>
        <time>2025-07-23T03:07:23Z</time>
      </trkpt>
      <trkpt lat="45.81701" lon="4.33964">
        <ele>559</ele>
        <time>2025-07-23T03:07:38Z</time>
      </trkpt>
      <trkpt lat="45.81709" lon="4.33951">
        <ele>558</ele>
        <time>2025-07-23T03:07:48Z</time>
      </trkpt>
      <trkpt lat="45.81716" lon="4.33934">
        <ele>557</ele>
        <time>2025-07-23T03:07:59Z</time>
      </trkpt>
      <trkpt lat="45.81723" lon="4.33929">
        <ele>557</ele>
        <time>2025-07-23T03:08:05Z</time>
      </trkpt>
      <trkpt lat="45.81728" lon="4.33926">
        <ele>557</ele>
        <time>2025-07-23T03:08:09Z</time>
      </trkpt>
      <trkpt lat="45.81739" lon="4.33926">
        <ele>557</ele>
        <time>2025-07-23T03:08:18Z</time>
      </trkpt>
      <trkpt lat="45.8175" lon="4.3393">
        <ele>557</ele>
        <time>2025-07-23T03:08:27Z</time>
      </trkpt>
      <trkpt lat="45.81761" lon="4.33929">
        <ele>558</ele>
        <time>2025-07-23T03:08:36Z</time>
      </trkpt>
      <trkpt lat="45.81769" lon="4.33925">
        <ele>559</ele>
        <time>2025-07-23T03:08:43Z</time>
      </trkpt>
      <trkpt lat="45.81791" lon="4.33917">
        <ele>561</ele>
        <time>2025-07-23T03:09:01Z</time>
      </trkpt>
      <trkpt lat="45.81811" lon="4.33907">
        <ele>564</ele>
        <time>2025-07-23T03:09:18Z</time>
      </trkpt>
      <trkpt lat="45.81882" lon="4.33869">
        <ele>570</ele>
        <time>2025-07-23T03:10:18Z</time>
      </trkpt>
      <trkpt lat="45.8189" lon="4.33864">
        <ele>571</ele>
        <time>2025-07-23T03:10:25Z</time>
      </trkpt>
      <trkpt lat="45.81894" lon="4.33859">
        <ele>572</ele>
        <time>2025-07-23T03:10:30Z</time>
      </trkpt>
      <trkpt lat="45.81895" lon="4.33861">
        <ele>572</ele>
        <time>2025-07-23T03:10:31Z</time>
      </trkpt>
      <trkpt lat="45.81902" lon="4.3389">
        <ele>571</ele>
        <time>2025-07-23T03:10:48Z</time>
      </trkpt>
      <trkpt lat="45.81912" lon="4.33908">
        <ele>570</ele>
        <time>2025-07-23T03:11:01Z</time>
      </trkpt>
      <trkpt lat="45.81938" lon="4.33942">
        <ele>569</ele>
        <time>2025-07-23T03:11:29Z</time>
      </trkpt>
      <trkpt lat="45.81953" lon="4.33956">
        <ele>568</ele>
        <time>2025-07-23T03:11:44Z</time>
      </trkpt>
      <trkpt lat="45.81968" lon="4.33966">
        <ele>568</ele>
        <time>2025-07-23T03:11:57Z</time>
      </trkpt>
      <trkpt lat="45.8198" lon="4.33981">
        <ele>567</ele>
        <time>2025-07-23T03:12:10Z</time>
      </trkpt>
      <trkpt lat="45.81989" lon="4.33997">
        <ele>566</ele>
        <time>2025-07-23T03:12:21Z</time>
      </trkpt>
      <trkpt lat="45.82019" lon="4.34058">
        <ele>567</ele>
        <time>2025-07-23T03:13:03Z</time>
      </trkpt>
      <trkpt lat="45.82035" lon="4.34086">
        <ele>567</ele>
        <time>2025-07-23T03:13:23Z</time>
      </trkpt>
      <trkpt lat="45.82077" lon="4.34146">
        <ele>568</ele>
        <time>2025-07-23T03:14:10Z</time>
      </trkpt>
      <trkpt lat="45.82079" lon="4.34163">
        <ele>567</ele>
        <time>2025-07-23T03:14:20Z</time>
      </trkpt>
      <trkpt lat="45.82078" lon="4.3419">
        <ele>567</ele>
        <time>2025-07-23T03:14:35Z</time>
      </trkpt>
      <trkpt lat="45.82076" lon="4.34213">
        <ele>567</ele>
        <time>2025-07-23T03:14:48Z</time>
      </trkpt>
      <trkpt lat="45.82069" lon="4.34254">
        <ele>568</ele>
        <time>2025-07-23T03:15:11Z</time>
      </trkpt>
      <trkpt lat="45.82063" lon="4.34272">
        <ele>569</ele>
        <time>2025-07-23T03:15:23Z</time>
      </trkpt>
      <trkpt lat="45.82061" lon="4.34291">
        <ele>570</ele>
        <time>2025-07-23T03:15:33Z</time>
      </trkpt>
      <trkpt lat="45.82063" lon="4.34316">
        <ele>571</ele>
        <time>2025-07-23T03:15:47Z</time>
      </trkpt>
      <trkpt lat="45.82063" lon="4.34338">
        <ele>572</ele>
        <time>2025-07-23T03:16:00Z</time>
      </trkpt>
      <trkpt lat="45.82067" lon="4.34366">
        <ele>574</ele>
        <time>2025-07-23T03:16:16Z</time>
      </trkpt>
      <trkpt lat="45.82067" lon="4.34414">
        <ele>576</ele>
        <time>2025-07-23T03:16:42Z</time>
      </trkpt>
      <trkpt lat="45.82066" lon="4.34429">
        <ele>579</ele>
        <time>2025-07-23T03:16:51Z</time>
      </trkpt>
      <trkpt lat="45.82061" lon="4.34459">
        <ele>584</ele>
        <time>2025-07-23T03:17:08Z</time>
      </trkpt>
      <trkpt lat="45.82025" lon="4.34488">
        <ele>582</ele>
        <time>2025-07-23T03:17:41Z</time>
      </trkpt>
    </trkseg>
  </trk>
</gpx>